<?xml version="1.0" encoding="UTF-8" standalone="no" ?><gpx xmlns="http://www.topografix.com/GPX/1/1" xmlns:gpxx="http://www.garmin.com/xmlschemas/GpxExtensions/v3" xmlns:wptx1="http://www.garmin.com/xmlschemas/WaypointExtension/v1" xmlns:gpxtpx="http://www.garmin.com/xmlschemas/TrackPointExtension/v1" creator="GuideVTT.com" version="1.1" xmlns:xsi="http://www.w3.org/2001/XMLSchema-instance" xsi:schemaLocation="http://www.topografix.com/GPX/1/1 http://www.topografix.com/GPX/1/1/gpx.xsd http://www.garmin.com/xmlschemas/GpxExtensions/v3 http://www8.garmin.com/xmlschemas/GpxExtensionsv3.xsd http://www.garmin.com/xmlschemas/WaypointExtension/v1 http://www8.garmin.com/xmlschemas/WaypointExtensionv1.xsd http://www.garmin.com/xmlschemas/TrackPointExtension/v1 http://www.garmin.com/xmlschemas/TrackPointExtensionv1.xsd">
<metadata><link href="http://www.garmin.com"><text>Garmin International</text></link><time>2013-06-22T15:13:50Z</time></metadata>
<trk><name>move_2015_05_29_17_35_51_mountainpbiking.gpx</name><extensions><gpxx:TrackExtension><gpxx:DisplayColor>Cyan</gpxx:DisplayColor></gpxx:TrackExtension></extensions><trkseg>
<trkpt lat="43.68494" lon="5.709286"><ele>260</ele><time>2015-05-29T15:35:51Z</time></trkpt>
<trkpt lat="43.68496" lon="5.709205"><ele>260</ele><time>2015-05-29T15:35:57Z</time></trkpt>
<trkpt lat="43.684993" lon="5.709077"><ele>259</ele><time>2015-05-29T15:36:01Z</time></trkpt>
<trkpt lat="43.685019" lon="5.708966"><ele>259</ele><time>2015-05-29T15:36:04Z</time></trkpt>
<trkpt lat="43.685072" lon="5.708828"><ele>259</ele><time>2015-05-29T15:36:08Z</time></trkpt>
<trkpt lat="43.685103" lon="5.708697"><ele>261</ele><time>2015-05-29T15:36:11Z</time></trkpt>
<trkpt lat="43.685089" lon="5.708581"><ele>261</ele><time>2015-05-29T15:36:14Z</time></trkpt>
<trkpt lat="43.685068" lon="5.708458"><ele>261.08</ele><time>2015-05-29T15:36:19Z</time></trkpt>
<trkpt lat="43.685097" lon="5.70833"><ele>263</ele><time>2015-05-29T15:36:24Z</time></trkpt>
<trkpt lat="43.685128" lon="5.708226"><ele>263</ele><time>2015-05-29T15:36:28Z</time></trkpt>
<trkpt lat="43.685155" lon="5.708119"><ele>264</ele><time>2015-05-29T15:36:32Z</time></trkpt>
<trkpt lat="43.685211" lon="5.708011"><ele>264</ele><time>2015-05-29T15:36:36Z</time></trkpt>
<trkpt lat="43.685266" lon="5.707888"><ele>265</ele><time>2015-05-29T15:36:40Z</time></trkpt>
<trkpt lat="43.685318" lon="5.707756"><ele>265</ele><time>2015-05-29T15:36:44Z</time></trkpt>
<trkpt lat="43.685345" lon="5.707649"><ele>265</ele><time>2015-05-29T15:36:48Z</time></trkpt>
<trkpt lat="43.685266" lon="5.707537"><ele>265</ele><time>2015-05-29T15:36:55Z</time></trkpt>
<trkpt lat="43.685197" lon="5.707491"><ele>265.12</ele><time>2015-05-29T15:36:59Z</time></trkpt>
<trkpt lat="43.685112" lon="5.707419"><ele>268.04</ele><time>2015-05-29T15:37:04Z</time></trkpt>
<trkpt lat="43.685039" lon="5.707372"><ele>269</ele><time>2015-05-29T15:37:08Z</time></trkpt>
<trkpt lat="43.684961" lon="5.707357"><ele>270</ele><time>2015-05-29T15:37:12Z</time></trkpt>
<trkpt lat="43.684882" lon="5.707355"><ele>272</ele><time>2015-05-29T15:37:16Z</time></trkpt>
<trkpt lat="43.684823" lon="5.707367"><ele>272.04</ele><time>2015-05-29T15:37:19Z</time></trkpt>
<trkpt lat="43.684748" lon="5.707382"><ele>273</ele><time>2015-05-29T15:37:22Z</time></trkpt>
<trkpt lat="43.684678" lon="5.707397"><ele>273</ele><time>2015-05-29T15:37:25Z</time></trkpt>
<trkpt lat="43.684611" lon="5.707409"><ele>273</ele><time>2015-05-29T15:37:28Z</time></trkpt>
<trkpt lat="43.684544" lon="5.707391"><ele>274</ele><time>2015-05-29T15:37:31Z</time></trkpt>
<trkpt lat="43.684459" lon="5.707347"><ele>274</ele><time>2015-05-29T15:37:35Z</time></trkpt>
<trkpt lat="43.68439" lon="5.707313"><ele>274</ele><time>2015-05-29T15:37:38Z</time></trkpt>
<trkpt lat="43.684319" lon="5.707275"><ele>274</ele><time>2015-05-29T15:37:41Z</time></trkpt>
<trkpt lat="43.68425" lon="5.707239"><ele>274</ele><time>2015-05-29T15:37:44Z</time></trkpt>
<trkpt lat="43.684184" lon="5.707203"><ele>274</ele><time>2015-05-29T15:37:47Z</time></trkpt>
<trkpt lat="43.684114" lon="5.707177"><ele>276</ele><time>2015-05-29T15:37:50Z</time></trkpt>
<trkpt lat="43.68405" lon="5.70715"><ele>276</ele><time>2015-05-29T15:37:53Z</time></trkpt>
<trkpt lat="43.683983" lon="5.707125"><ele>277</ele><time>2015-05-29T15:37:56Z</time></trkpt>
<trkpt lat="43.68392" lon="5.70711"><ele>277.08</ele><time>2015-05-29T15:37:59Z</time></trkpt>
<trkpt lat="43.683851" lon="5.707094"><ele>279</ele><time>2015-05-29T15:38:03Z</time></trkpt>
<trkpt lat="43.683808" lon="5.707039"><ele>280</ele><time>2015-05-29T15:38:07Z</time></trkpt>
<trkpt lat="43.683809" lon="5.706955"><ele>281</ele><time>2015-05-29T15:38:11Z</time></trkpt>
<trkpt lat="43.683808" lon="5.706865"><ele>282</ele><time>2015-05-29T15:38:15Z</time></trkpt>
<trkpt lat="43.683809" lon="5.706788"><ele>282</ele><time>2015-05-29T15:38:18Z</time></trkpt>
<trkpt lat="43.683809" lon="5.706705"><ele>283</ele><time>2015-05-29T15:38:22Z</time></trkpt>
<trkpt lat="43.683802" lon="5.706608"><ele>283</ele><time>2015-05-29T15:38:26Z</time></trkpt>
<trkpt lat="43.683797" lon="5.706525"><ele>283.04</ele><time>2015-05-29T15:38:29Z</time></trkpt>
<trkpt lat="43.683791" lon="5.706444"><ele>284</ele><time>2015-05-29T15:38:32Z</time></trkpt>
<trkpt lat="43.683786" lon="5.706359"><ele>284</ele><time>2015-05-29T15:38:35Z</time></trkpt>
<trkpt lat="43.683782" lon="5.706278"><ele>284</ele><time>2015-05-29T15:38:38Z</time></trkpt>
<trkpt lat="43.683781" lon="5.706201"><ele>286</ele><time>2015-05-29T15:38:41Z</time></trkpt>
<trkpt lat="43.683781" lon="5.706118"><ele>286</ele><time>2015-05-29T15:38:44Z</time></trkpt>
<trkpt lat="43.683788" lon="5.706028"><ele>286</ele><time>2015-05-29T15:38:47Z</time></trkpt>
<trkpt lat="43.683787" lon="5.705936"><ele>287</ele><time>2015-05-29T15:38:50Z</time></trkpt>
<trkpt lat="43.683722" lon="5.705909"><ele>287</ele><time>2015-05-29T15:38:54Z</time></trkpt>
<trkpt lat="43.683685" lon="5.705968"><ele>287</ele><time>2015-05-29T15:38:57Z</time></trkpt>
<trkpt lat="43.683654" lon="5.706036"><ele>292</ele><time>2015-05-29T15:39:00Z</time></trkpt>
<trkpt lat="43.683618" lon="5.706102"><ele>292</ele><time>2015-05-29T15:39:03Z</time></trkpt>
<trkpt lat="43.683572" lon="5.706156"><ele>293</ele><time>2015-05-29T15:39:06Z</time></trkpt>
<trkpt lat="43.683518" lon="5.706195"><ele>293</ele><time>2015-05-29T15:39:09Z</time></trkpt>
<trkpt lat="43.683456" lon="5.706207"><ele>293</ele><time>2015-05-29T15:39:12Z</time></trkpt>
<trkpt lat="43.6834" lon="5.706218"><ele>293</ele><time>2015-05-29T15:39:15Z</time></trkpt>
<trkpt lat="43.683342" lon="5.706229"><ele>293</ele><time>2015-05-29T15:39:18Z</time></trkpt>
<trkpt lat="43.683286" lon="5.706239"><ele>295</ele><time>2015-05-29T15:39:21Z</time></trkpt>
<trkpt lat="43.683228" lon="5.706254"><ele>295</ele><time>2015-05-29T15:39:24Z</time></trkpt>
<trkpt lat="43.683172" lon="5.706268"><ele>295</ele><time>2015-05-29T15:39:27Z</time></trkpt>
<trkpt lat="43.68312" lon="5.706284"><ele>298</ele><time>2015-05-29T15:39:30Z</time></trkpt>
<trkpt lat="43.683068" lon="5.7063"><ele>298</ele><time>2015-05-29T15:39:33Z</time></trkpt>
<trkpt lat="43.68302" lon="5.706307"><ele>299</ele><time>2015-05-29T15:39:36Z</time></trkpt>
<trkpt lat="43.682981" lon="5.706256"><ele>300</ele><time>2015-05-29T15:39:40Z</time></trkpt>
<trkpt lat="43.683004" lon="5.706169"><ele>300.08</ele><time>2015-05-29T15:39:44Z</time></trkpt>
<trkpt lat="43.683036" lon="5.706091"><ele>302</ele><time>2015-05-29T15:39:48Z</time></trkpt>
<trkpt lat="43.683078" lon="5.706025"><ele>304</ele><time>2015-05-29T15:39:51Z</time></trkpt>
<trkpt lat="43.683106" lon="5.705958"><ele>304.04</ele><time>2015-05-29T15:39:54Z</time></trkpt>
<trkpt lat="43.683134" lon="5.705884"><ele>305</ele><time>2015-05-29T15:39:57Z</time></trkpt>
<trkpt lat="43.683146" lon="5.705804"><ele>306</ele><time>2015-05-29T15:40:00Z</time></trkpt>
<trkpt lat="43.683077" lon="5.70579"><ele>306</ele><time>2015-05-29T15:40:06Z</time></trkpt>
<trkpt lat="43.683026" lon="5.705875"><ele>308</ele><time>2015-05-29T15:40:10Z</time></trkpt>
<trkpt lat="43.68297" lon="5.705946"><ele>308</ele><time>2015-05-29T15:40:14Z</time></trkpt>
<trkpt lat="43.682914" lon="5.705954"><ele>308</ele><time>2015-05-29T15:40:18Z</time></trkpt>
<trkpt lat="43.682926" lon="5.70585"><ele>310</ele><time>2015-05-29T15:40:24Z</time></trkpt>
<trkpt lat="43.682963" lon="5.705766"><ele>310</ele><time>2015-05-29T15:40:28Z</time></trkpt>
<trkpt lat="43.682989" lon="5.70568"><ele>312</ele><time>2015-05-29T15:40:32Z</time></trkpt>
<trkpt lat="43.683009" lon="5.705612"><ele>312</ele><time>2015-05-29T15:40:35Z</time></trkpt>
<trkpt lat="43.683026" lon="5.705541"><ele>312</ele><time>2015-05-29T15:40:38Z</time></trkpt>
<trkpt lat="43.68303" lon="5.705452"><ele>314</ele><time>2015-05-29T15:40:42Z</time></trkpt>
<trkpt lat="43.683031" lon="5.705385"><ele>316</ele><time>2015-05-29T15:40:45Z</time></trkpt>
<trkpt lat="43.683026" lon="5.705303"><ele>316.08</ele><time>2015-05-29T15:40:49Z</time></trkpt>
<trkpt lat="43.68301" lon="5.705234"><ele>318</ele><time>2015-05-29T15:40:52Z</time></trkpt>
<trkpt lat="43.682991" lon="5.705168"><ele>319</ele><time>2015-05-29T15:40:55Z</time></trkpt>
<trkpt lat="43.682965" lon="5.705109"><ele>319</ele><time>2015-05-29T15:40:58Z</time></trkpt>
<trkpt lat="43.682935" lon="5.70505"><ele>321</ele><time>2015-05-29T15:41:01Z</time></trkpt>
<trkpt lat="43.682898" lon="5.704995"><ele>322</ele><time>2015-05-29T15:41:05Z</time></trkpt>
<trkpt lat="43.682859" lon="5.704924"><ele>322.04</ele><time>2015-05-29T15:41:09Z</time></trkpt>
<trkpt lat="43.682822" lon="5.704858"><ele>323</ele><time>2015-05-29T15:41:12Z</time></trkpt>
<trkpt lat="43.682771" lon="5.704782"><ele>323</ele><time>2015-05-29T15:41:16Z</time></trkpt>
<trkpt lat="43.682733" lon="5.704716"><ele>323.04</ele><time>2015-05-29T15:41:19Z</time></trkpt>
<trkpt lat="43.682703" lon="5.704653"><ele>324</ele><time>2015-05-29T15:41:22Z</time></trkpt>
<trkpt lat="43.682681" lon="5.704614"><ele>324</ele><time>2015-05-29T15:41:24Z</time></trkpt>
<trkpt lat="43.682655" lon="5.704573"><ele>324</ele><time>2015-05-29T15:41:26Z</time></trkpt>
<trkpt lat="43.682629" lon="5.704535"><ele>324</ele><time>2015-05-29T15:41:28Z</time></trkpt>
<trkpt lat="43.682576" lon="5.704468"><ele>326</ele><time>2015-05-29T15:41:32Z</time></trkpt>
<trkpt lat="43.682526" lon="5.704403"><ele>326</ele><time>2015-05-29T15:41:36Z</time></trkpt>
<trkpt lat="43.682471" lon="5.704334"><ele>330</ele><time>2015-05-29T15:41:41Z</time></trkpt>
<trkpt lat="43.682435" lon="5.704257"><ele>331</ele><time>2015-05-29T15:41:45Z</time></trkpt>
<trkpt lat="43.682405" lon="5.704164"><ele>331.04</ele><time>2015-05-29T15:41:49Z</time></trkpt>
<trkpt lat="43.682379" lon="5.704072"><ele>332</ele><time>2015-05-29T15:41:53Z</time></trkpt>
<trkpt lat="43.682362" lon="5.703981"><ele>334</ele><time>2015-05-29T15:41:57Z</time></trkpt>
<trkpt lat="43.68234" lon="5.703894"><ele>336</ele><time>2015-05-29T15:42:01Z</time></trkpt>
<trkpt lat="43.682328" lon="5.703795"><ele>336</ele><time>2015-05-29T15:42:05Z</time></trkpt>
<trkpt lat="43.68232" lon="5.703698"><ele>336.04</ele><time>2015-05-29T15:42:09Z</time></trkpt>
<trkpt lat="43.682334" lon="5.703588"><ele>337</ele><time>2015-05-29T15:42:14Z</time></trkpt>
<trkpt lat="43.682274" lon="5.70354"><ele>340</ele><time>2015-05-29T15:42:20Z</time></trkpt>
<trkpt lat="43.682224" lon="5.703612"><ele>340.04</ele><time>2015-05-29T15:42:24Z</time></trkpt>
<trkpt lat="43.682192" lon="5.703704"><ele>341</ele><time>2015-05-29T15:42:28Z</time></trkpt>
<trkpt lat="43.682182" lon="5.703821"><ele>342</ele><time>2015-05-29T15:42:32Z</time></trkpt>
<trkpt lat="43.682172" lon="5.70395"><ele>343</ele><time>2015-05-29T15:42:36Z</time></trkpt>
<trkpt lat="43.682164" lon="5.70405"><ele>343.04</ele><time>2015-05-29T15:42:39Z</time></trkpt>
<trkpt lat="43.682156" lon="5.70415"><ele>344</ele><time>2015-05-29T15:42:42Z</time></trkpt>
<trkpt lat="43.682153" lon="5.704285"><ele>344</ele><time>2015-05-29T15:42:46Z</time></trkpt>
<trkpt lat="43.682153" lon="5.704428"><ele>345</ele><time>2015-05-29T15:42:50Z</time></trkpt>
<trkpt lat="43.682168" lon="5.704548"><ele>345</ele><time>2015-05-29T15:42:54Z</time></trkpt>
<trkpt lat="43.6822" lon="5.704681"><ele>345.08</ele><time>2015-05-29T15:42:59Z</time></trkpt>
<trkpt lat="43.682231" lon="5.704797"><ele>347</ele><time>2015-05-29T15:43:04Z</time></trkpt>
<trkpt lat="43.682231" lon="5.704904"><ele>347</ele><time>2015-05-29T15:43:08Z</time></trkpt>
<trkpt lat="43.682191" lon="5.704988"><ele>349</ele><time>2015-05-29T15:43:12Z</time></trkpt>
<trkpt lat="43.682114" lon="5.705"><ele>349</ele><time>2015-05-29T15:43:17Z</time></trkpt>
<trkpt lat="43.682069" lon="5.704935"><ele>351</ele><time>2015-05-29T15:43:21Z</time></trkpt>
<trkpt lat="43.682042" lon="5.704871"><ele>351.08</ele><time>2015-05-29T15:43:24Z</time></trkpt>
<trkpt lat="43.682016" lon="5.704807"><ele>353</ele><time>2015-05-29T15:43:27Z</time></trkpt>
<trkpt lat="43.681968" lon="5.704721"><ele>354</ele><time>2015-05-29T15:43:31Z</time></trkpt>
<trkpt lat="43.681925" lon="5.704635"><ele>355</ele><time>2015-05-29T15:43:35Z</time></trkpt>
<trkpt lat="43.681898" lon="5.704563"><ele>355</ele><time>2015-05-29T15:43:38Z</time></trkpt>
<trkpt lat="43.681874" lon="5.704488"><ele>356</ele><time>2015-05-29T15:43:41Z</time></trkpt>
<trkpt lat="43.681853" lon="5.704394"><ele>358</ele><time>2015-05-29T15:43:45Z</time></trkpt>
<trkpt lat="43.681833" lon="5.704302"><ele>358.04</ele><time>2015-05-29T15:43:49Z</time></trkpt>
<trkpt lat="43.681812" lon="5.704225"><ele>359</ele><time>2015-05-29T15:43:52Z</time></trkpt>
<trkpt lat="43.681789" lon="5.704133"><ele>360</ele><time>2015-05-29T15:43:56Z</time></trkpt>
<trkpt lat="43.681773" lon="5.704065"><ele>360.04</ele><time>2015-05-29T15:43:59Z</time></trkpt>
<trkpt lat="43.681756" lon="5.703996"><ele>361</ele><time>2015-05-29T15:44:02Z</time></trkpt>
<trkpt lat="43.681739" lon="5.703932"><ele>363</ele><time>2015-05-29T15:44:05Z</time></trkpt>
<trkpt lat="43.681714" lon="5.70383"><ele>363.0099968</ele><time>2015-05-29T15:44:10Z</time></trkpt>
<trkpt lat="43.681701" lon="5.70373"><ele>364</ele><time>2015-05-29T15:44:14Z</time></trkpt>
<trkpt lat="43.681695" lon="5.703648"><ele>364</ele><time>2015-05-29T15:44:17Z</time></trkpt>
<trkpt lat="43.681693" lon="5.703572"><ele>364.06061232933</ele><time>2015-05-29T15:44:20Z</time></trkpt>
<trkpt lat="43.681687" lon="5.703501"><ele>366</ele><time>2015-05-29T15:44:23Z</time></trkpt>
<trkpt lat="43.681682" lon="5.703424"><ele>366</ele><time>2015-05-29T15:44:26Z</time></trkpt>
<trkpt lat="43.681678" lon="5.703344"><ele>366</ele><time>2015-05-29T15:44:29Z</time></trkpt>
<trkpt lat="43.681684" lon="5.703268"><ele>368</ele><time>2015-05-29T15:44:32Z</time></trkpt>
<trkpt lat="43.68169" lon="5.703189"><ele>368</ele><time>2015-05-29T15:44:35Z</time></trkpt>
<trkpt lat="43.681587" lon="5.703247"><ele>372</ele><time>2015-05-29T15:44:46Z</time></trkpt>
<trkpt lat="43.681519" lon="5.703304"><ele>372</ele><time>2015-05-29T15:44:50Z</time></trkpt>
<trkpt lat="43.681444" lon="5.703357"><ele>372</ele><time>2015-05-29T15:44:54Z</time></trkpt>
<trkpt lat="43.681379" lon="5.703409"><ele>372</ele><time>2015-05-29T15:44:58Z</time></trkpt>
<trkpt lat="43.68131" lon="5.703457"><ele>375</ele><time>2015-05-29T15:45:02Z</time></trkpt>
<trkpt lat="43.681244" lon="5.703499"><ele>376</ele><time>2015-05-29T15:45:06Z</time></trkpt>
<trkpt lat="43.681182" lon="5.703542"><ele>376.0499968</ele><time>2015-05-29T15:45:10Z</time></trkpt>
<trkpt lat="43.681123" lon="5.703586"><ele>377</ele><time>2015-05-29T15:45:14Z</time></trkpt>
<trkpt lat="43.681051" lon="5.703645"><ele>378</ele><time>2015-05-29T15:45:19Z</time></trkpt>
<trkpt lat="43.680987" lon="5.703689"><ele>379</ele><time>2015-05-29T15:45:23Z</time></trkpt>
<trkpt lat="43.680913" lon="5.703725"><ele>379</ele><time>2015-05-29T15:45:27Z</time></trkpt>
<trkpt lat="43.680931" lon="5.703605"><ele>380</ele><time>2015-05-29T15:45:36Z</time></trkpt>
<trkpt lat="43.68096" lon="5.703518"><ele>380.08</ele><time>2015-05-29T15:45:40Z</time></trkpt>
<trkpt lat="43.680972" lon="5.703417"><ele>382.12</ele><time>2015-05-29T15:45:45Z</time></trkpt>
<trkpt lat="43.681001" lon="5.703298"><ele>386</ele><time>2015-05-29T15:45:51Z</time></trkpt>
<trkpt lat="43.681037" lon="5.703183"><ele>388</ele><time>2015-05-29T15:45:57Z</time></trkpt>
<trkpt lat="43.681115" lon="5.70311"><ele>388</ele><time>2015-05-29T15:46:02Z</time></trkpt>
<trkpt lat="43.681189" lon="5.703053"><ele>388</ele><time>2015-05-29T15:46:07Z</time></trkpt>
<trkpt lat="43.681244" lon="5.702964"><ele>390</ele><time>2015-05-29T15:46:13Z</time></trkpt>
<trkpt lat="43.6813" lon="5.702898"><ele>390</ele><time>2015-05-29T15:46:17Z</time></trkpt>
<trkpt lat="43.681345" lon="5.702821"><ele>392</ele><time>2015-05-29T15:46:21Z</time></trkpt>
<trkpt lat="43.681394" lon="5.702736"><ele>392</ele><time>2015-05-29T15:46:25Z</time></trkpt>
<trkpt lat="43.68143" lon="5.702632"><ele>392</ele><time>2015-05-29T15:46:29Z</time></trkpt>
<trkpt lat="43.681469" lon="5.702522"><ele>393</ele><time>2015-05-29T15:46:33Z</time></trkpt>
<trkpt lat="43.681508" lon="5.70243"><ele>393</ele><time>2015-05-29T15:46:37Z</time></trkpt>
<trkpt lat="43.681549" lon="5.702326"><ele>394</ele><time>2015-05-29T15:46:42Z</time></trkpt>
<trkpt lat="43.681575" lon="5.702236"><ele>394</ele><time>2015-05-29T15:46:46Z</time></trkpt>
<trkpt lat="43.68161" lon="5.702139"><ele>394.08</ele><time>2015-05-29T15:46:50Z</time></trkpt>
<trkpt lat="43.681649" lon="5.702032"><ele>396</ele><time>2015-05-29T15:46:55Z</time></trkpt>
<trkpt lat="43.681725" lon="5.701958"><ele>396.08</ele><time>2015-05-29T15:47:00Z</time></trkpt>
<trkpt lat="43.681781" lon="5.701858"><ele>398</ele><time>2015-05-29T15:47:05Z</time></trkpt>
<trkpt lat="43.681816" lon="5.701768"><ele>398</ele><time>2015-05-29T15:47:09Z</time></trkpt>
<trkpt lat="43.681848" lon="5.701684"><ele>400</ele><time>2015-05-29T15:47:13Z</time></trkpt>
<trkpt lat="43.681885" lon="5.701574"><ele>402</ele><time>2015-05-29T15:47:18Z</time></trkpt>
<trkpt lat="43.681933" lon="5.701495"><ele>403</ele><time>2015-05-29T15:47:22Z</time></trkpt>
<trkpt lat="43.681979" lon="5.701418"><ele>403</ele><time>2015-05-29T15:47:24Z</time></trkpt>
<trkpt lat="43.68201" lon="5.701331"><ele>404</ele><time>2015-05-29T15:47:29Z</time></trkpt>
<trkpt lat="43.68204" lon="5.701244"><ele>406</ele><time>2015-05-29T15:47:33Z</time></trkpt>
<trkpt lat="43.682104" lon="5.701124"><ele>406</ele><time>2015-05-29T15:47:39Z</time></trkpt>
<trkpt lat="43.682148" lon="5.701022"><ele>407</ele><time>2015-05-29T15:47:44Z</time></trkpt>
<trkpt lat="43.682201" lon="5.70093"><ele>407</ele><time>2015-05-29T15:47:49Z</time></trkpt>
<trkpt lat="43.682237" lon="5.700848"><ele>409</ele><time>2015-05-29T15:47:53Z</time></trkpt>
<trkpt lat="43.682287" lon="5.700729"><ele>409</ele><time>2015-05-29T15:47:59Z</time></trkpt>
<trkpt lat="43.682322" lon="5.700639"><ele>412</ele><time>2015-05-29T15:48:03Z</time></trkpt>
<trkpt lat="43.68236" lon="5.70052"><ele>413</ele><time>2015-05-29T15:48:09Z</time></trkpt>
<trkpt lat="43.68239" lon="5.700442"><ele>416</ele><time>2015-05-29T15:48:13Z</time></trkpt>
<trkpt lat="43.682428" lon="5.700358"><ele>417</ele><time>2015-05-29T15:48:17Z</time></trkpt>
<trkpt lat="43.68244" lon="5.700282"><ele>417</ele><time>2015-05-29T15:48:20Z</time></trkpt>
<trkpt lat="43.682396" lon="5.700207"><ele>419</ele><time>2015-05-29T15:48:25Z</time></trkpt>
<trkpt lat="43.682336" lon="5.700206"><ele>419</ele><time>2015-05-29T15:48:28Z</time></trkpt>
<trkpt lat="43.682266" lon="5.700204"><ele>419</ele><time>2015-05-29T15:48:31Z</time></trkpt>
<trkpt lat="43.682184" lon="5.70023"><ele>419</ele><time>2015-05-29T15:48:34Z</time></trkpt>
<trkpt lat="43.682106" lon="5.700228"><ele>419</ele><time>2015-05-29T15:48:37Z</time></trkpt>
<trkpt lat="43.682039" lon="5.70024"><ele>419</ele><time>2015-05-29T15:48:39Z</time></trkpt>
<trkpt lat="43.68198" lon="5.700282"><ele>419</ele><time>2015-05-29T15:48:41Z</time></trkpt>
<trkpt lat="43.681912" lon="5.700351"><ele>419</ele><time>2015-05-29T15:48:44Z</time></trkpt>
<trkpt lat="43.681852" lon="5.700402"><ele>419</ele><time>2015-05-29T15:48:47Z</time></trkpt>
<trkpt lat="43.681792" lon="5.700441"><ele>419</ele><time>2015-05-29T15:48:50Z</time></trkpt>
<trkpt lat="43.681712" lon="5.70048"><ele>420</ele><time>2015-05-29T15:48:54Z</time></trkpt>
<trkpt lat="43.681652" lon="5.700512"><ele>420</ele><time>2015-05-29T15:48:57Z</time></trkpt>
<trkpt lat="43.681594" lon="5.700547"><ele>420</ele><time>2015-05-29T15:49:00Z</time></trkpt>
<trkpt lat="43.68154" lon="5.700575"><ele>420</ele><time>2015-05-29T15:49:03Z</time></trkpt>
<trkpt lat="43.681485" lon="5.700607"><ele>420</ele><time>2015-05-29T15:49:06Z</time></trkpt>
<trkpt lat="43.681431" lon="5.700639"><ele>420</ele><time>2015-05-29T15:49:09Z</time></trkpt>
<trkpt lat="43.681377" lon="5.700665"><ele>423</ele><time>2015-05-29T15:49:12Z</time></trkpt>
<trkpt lat="43.68132" lon="5.700692"><ele>423</ele><time>2015-05-29T15:49:15Z</time></trkpt>
<trkpt lat="43.681265" lon="5.700722"><ele>425</ele><time>2015-05-29T15:49:18Z</time></trkpt>
<trkpt lat="43.681208" lon="5.700752"><ele>425</ele><time>2015-05-29T15:49:21Z</time></trkpt>
<trkpt lat="43.68117" lon="5.700776"><ele>425</ele><time>2015-05-29T15:49:23Z</time></trkpt>
<trkpt lat="43.681119" lon="5.700811"><ele>426.8799872</ele><time>2015-05-29T15:49:26Z</time></trkpt>
<trkpt lat="43.681068" lon="5.700843"><ele>427</ele><time>2015-05-29T15:49:29Z</time></trkpt>
<trkpt lat="43.681013" lon="5.700877"><ele>428</ele><time>2015-05-29T15:49:32Z</time></trkpt>
<trkpt lat="43.68096" lon="5.70092"><ele>428</ele><time>2015-05-29T15:49:35Z</time></trkpt>
<trkpt lat="43.680886" lon="5.700978"><ele>428</ele><time>2015-05-29T15:49:39Z</time></trkpt>
<trkpt lat="43.680825" lon="5.701038"><ele>430</ele><time>2015-05-29T15:49:42Z</time></trkpt>
<trkpt lat="43.680762" lon="5.701115"><ele>430</ele><time>2015-05-29T15:49:45Z</time></trkpt>
<trkpt lat="43.680701" lon="5.701202"><ele>430</ele><time>2015-05-29T15:49:48Z</time></trkpt>
<trkpt lat="43.680637" lon="5.701294"><ele>430.9399936</ele><time>2015-05-29T15:49:51Z</time></trkpt>
<trkpt lat="43.680569" lon="5.70138"><ele>431</ele><time>2015-05-29T15:49:54Z</time></trkpt>
<trkpt lat="43.680493" lon="5.701466"><ele>431</ele><time>2015-05-29T15:49:57Z</time></trkpt>
<trkpt lat="43.68044" lon="5.701525"><ele>431</ele><time>2015-05-29T15:49:59Z</time></trkpt>
<trkpt lat="43.680386" lon="5.701589"><ele>430.0600064</ele><time>2015-05-29T15:50:01Z</time></trkpt>
<trkpt lat="43.680302" lon="5.701674"><ele>430</ele><time>2015-05-29T15:50:04Z</time></trkpt>
<trkpt lat="43.680242" lon="5.701728"><ele>430</ele><time>2015-05-29T15:50:06Z</time></trkpt>
<trkpt lat="43.680179" lon="5.70179"><ele>430</ele><time>2015-05-29T15:50:08Z</time></trkpt>
<trkpt lat="43.680112" lon="5.701861"><ele>430</ele><time>2015-05-29T15:50:10Z</time></trkpt>
<trkpt lat="43.680041" lon="5.701937"><ele>431</ele><time>2015-05-29T15:50:12Z</time></trkpt>
<trkpt lat="43.679966" lon="5.702023"><ele>431</ele><time>2015-05-29T15:50:14Z</time></trkpt>
<trkpt lat="43.679891" lon="5.702113"><ele>431</ele><time>2015-05-29T15:50:16Z</time></trkpt>
<trkpt lat="43.67981" lon="5.702214"><ele>431</ele><time>2015-05-29T15:50:18Z</time></trkpt>
<trkpt lat="43.679728" lon="5.702326"><ele>431</ele><time>2015-05-29T15:50:20Z</time></trkpt>
<trkpt lat="43.679637" lon="5.702462"><ele>431</ele><time>2015-05-29T15:50:22Z</time></trkpt>
<trkpt lat="43.679552" lon="5.702611"><ele>431</ele><time>2015-05-29T15:50:24Z</time></trkpt>
<trkpt lat="43.679459" lon="5.702725"><ele>431</ele><time>2015-05-29T15:50:26Z</time></trkpt>
<trkpt lat="43.679376" lon="5.702811"><ele>431</ele><time>2015-05-29T15:50:28Z</time></trkpt>
<trkpt lat="43.679278" lon="5.702864"><ele>429</ele><time>2015-05-29T15:50:32Z</time></trkpt>
<trkpt lat="43.679195" lon="5.702894"><ele>429</ele><time>2015-05-29T15:50:36Z</time></trkpt>
<trkpt lat="43.679111" lon="5.702937"><ele>429</ele><time>2015-05-29T15:50:40Z</time></trkpt>
<trkpt lat="43.679049" lon="5.702971"><ele>432</ele><time>2015-05-29T15:50:43Z</time></trkpt>
<trkpt lat="43.678974" lon="5.703023"><ele>434</ele><time>2015-05-29T15:50:47Z</time></trkpt>
<trkpt lat="43.678911" lon="5.703057"><ele>434</ele><time>2015-05-29T15:50:50Z</time></trkpt>
<trkpt lat="43.678823" lon="5.703083"><ele>435</ele><time>2015-05-29T15:50:53Z</time></trkpt>
<trkpt lat="43.678747" lon="5.703093"><ele>435</ele><time>2015-05-29T15:50:55Z</time></trkpt>
<trkpt lat="43.678661" lon="5.703098"><ele>435</ele><time>2015-05-29T15:50:57Z</time></trkpt>
<trkpt lat="43.678575" lon="5.703108"><ele>435</ele><time>2015-05-29T15:50:59Z</time></trkpt>
<trkpt lat="43.678486" lon="5.703118"><ele>435.9399936</ele><time>2015-05-29T15:51:01Z</time></trkpt>
<trkpt lat="43.678397" lon="5.70312"><ele>436</ele><time>2015-05-29T15:51:03Z</time></trkpt>
<trkpt lat="43.678305" lon="5.703138"><ele>436</ele><time>2015-05-29T15:51:05Z</time></trkpt>
<trkpt lat="43.678204" lon="5.703156"><ele>436</ele><time>2015-05-29T15:51:07Z</time></trkpt>
<trkpt lat="43.678098" lon="5.703182"><ele>436</ele><time>2015-05-29T15:51:09Z</time></trkpt>
<trkpt lat="43.677987" lon="5.703222"><ele>434.1200128</ele><time>2015-05-29T15:51:11Z</time></trkpt>
<trkpt lat="43.677877" lon="5.703268"><ele>434</ele><time>2015-05-29T15:51:13Z</time></trkpt>
<trkpt lat="43.677775" lon="5.703332"><ele>434.9399936</ele><time>2015-05-29T15:51:15Z</time></trkpt>
<trkpt lat="43.677694" lon="5.70342"><ele>435</ele><time>2015-05-29T15:51:17Z</time></trkpt>
<trkpt lat="43.677636" lon="5.703612"><ele>435</ele><time>2015-05-29T15:51:20Z</time></trkpt>
<trkpt lat="43.677586" lon="5.70376"><ele>431</ele><time>2015-05-29T15:51:22Z</time></trkpt>
<trkpt lat="43.677533" lon="5.703918"><ele>431</ele><time>2015-05-29T15:51:24Z</time></trkpt>
<trkpt lat="43.677474" lon="5.704098"><ele>427.2400256</ele><time>2015-05-29T15:51:26Z</time></trkpt>
<trkpt lat="43.677427" lon="5.704289"><ele>427</ele><time>2015-05-29T15:51:28Z</time></trkpt>
<trkpt lat="43.677405" lon="5.704486"><ele>427</ele><time>2015-05-29T15:51:30Z</time></trkpt>
<trkpt lat="43.677413" lon="5.704682"><ele>421.1200128</ele><time>2015-05-29T15:51:32Z</time></trkpt>
<trkpt lat="43.67741" lon="5.704872"><ele>419.0600064</ele><time>2015-05-29T15:51:34Z</time></trkpt>
<trkpt lat="43.677379" lon="5.705034"><ele>418.0499968</ele><time>2015-05-29T15:51:36Z</time></trkpt>
<trkpt lat="43.677309" lon="5.70515"><ele>417</ele><time>2015-05-29T15:51:38Z</time></trkpt>
<trkpt lat="43.677161" lon="5.705202"><ele>416</ele><time>2015-05-29T15:51:41Z</time></trkpt>
<trkpt lat="43.677018" lon="5.705207"><ele>415</ele><time>2015-05-29T15:51:43Z</time></trkpt>
<trkpt lat="43.676906" lon="5.705214"><ele>415.9399936</ele><time>2015-05-29T15:51:45Z</time></trkpt>
<trkpt lat="43.676798" lon="5.705308"><ele>416</ele><time>2015-05-29T15:51:49Z</time></trkpt>
<trkpt lat="43.676725" lon="5.705406"><ele>416</ele><time>2015-05-29T15:51:52Z</time></trkpt>
<trkpt lat="43.676644" lon="5.705546"><ele>416</ele><time>2015-05-29T15:51:55Z</time></trkpt>
<trkpt lat="43.676596" lon="5.705666"><ele>416</ele><time>2015-05-29T15:51:57Z</time></trkpt>
<trkpt lat="43.676541" lon="5.705794"><ele>416</ele><time>2015-05-29T15:51:59Z</time></trkpt>
<trkpt lat="43.676487" lon="5.705918"><ele>411.300032</ele><time>2015-05-29T15:52:01Z</time></trkpt>
<trkpt lat="43.676415" lon="5.706076"><ele>411</ele><time>2015-05-29T15:52:04Z</time></trkpt>
<trkpt lat="43.676324" lon="5.706235"><ele>412</ele><time>2015-05-29T15:52:09Z</time></trkpt>
<trkpt lat="43.676258" lon="5.706307"><ele>414</ele><time>2015-05-29T15:52:12Z</time></trkpt>
<trkpt lat="43.676202" lon="5.706357"><ele>414</ele><time>2015-05-29T15:52:15Z</time></trkpt>
<trkpt lat="43.676138" lon="5.706439"><ele>415</ele><time>2015-05-29T15:52:19Z</time></trkpt>
<trkpt lat="43.676113" lon="5.706542"><ele>417</ele><time>2015-05-29T15:52:23Z</time></trkpt>
<trkpt lat="43.676196" lon="5.706646"><ele>417</ele><time>2015-05-29T15:52:30Z</time></trkpt>
<trkpt lat="43.676318" lon="5.706678"><ele>417</ele><time>2015-05-29T15:52:34Z</time></trkpt>
<trkpt lat="43.676429" lon="5.706718"><ele>417</ele><time>2015-05-29T15:52:37Z</time></trkpt>
<trkpt lat="43.676522" lon="5.706769"><ele>417</ele><time>2015-05-29T15:52:40Z</time></trkpt>
<trkpt lat="43.676615" lon="5.706796"><ele>418</ele><time>2015-05-29T15:52:43Z</time></trkpt>
<trkpt lat="43.676701" lon="5.706852"><ele>418</ele><time>2015-05-29T15:52:47Z</time></trkpt>
<trkpt lat="43.676796" lon="5.70695"><ele>418</ele><time>2015-05-29T15:52:52Z</time></trkpt>
<trkpt lat="43.676867" lon="5.707024"><ele>418</ele><time>2015-05-29T15:52:55Z</time></trkpt>
<trkpt lat="43.676975" lon="5.707114"><ele>418</ele><time>2015-05-29T15:52:59Z</time></trkpt>
<trkpt lat="43.677078" lon="5.707203"><ele>418</ele><time>2015-05-29T15:53:02Z</time></trkpt>
<trkpt lat="43.677162" lon="5.707308"><ele>418</ele><time>2015-05-29T15:53:05Z</time></trkpt>
<trkpt lat="43.677232" lon="5.707431"><ele>418</ele><time>2015-05-29T15:53:08Z</time></trkpt>
<trkpt lat="43.677275" lon="5.707571"><ele>417.0600064</ele><time>2015-05-29T15:53:11Z</time></trkpt>
<trkpt lat="43.67723" lon="5.707648"><ele>417</ele><time>2015-05-29T15:53:14Z</time></trkpt>
<trkpt lat="43.677162" lon="5.707694"><ele>417</ele><time>2015-05-29T15:53:17Z</time></trkpt>
<trkpt lat="43.677108" lon="5.707754"><ele>417</ele><time>2015-05-29T15:53:20Z</time></trkpt>
<trkpt lat="43.677052" lon="5.707801"><ele>418</ele><time>2015-05-29T15:53:23Z</time></trkpt>
<trkpt lat="43.676992" lon="5.707854"><ele>418</ele><time>2015-05-29T15:53:26Z</time></trkpt>
<trkpt lat="43.676936" lon="5.707907"><ele>418</ele><time>2015-05-29T15:53:29Z</time></trkpt>
<trkpt lat="43.676905" lon="5.707952"><ele>420.8199808</ele><time>2015-05-29T15:53:31Z</time></trkpt>
<trkpt lat="43.676879" lon="5.707997"><ele>421</ele><time>2015-05-29T15:53:33Z</time></trkpt>
<trkpt lat="43.676844" lon="5.708066"><ele>422.8799872</ele><time>2015-05-29T15:53:36Z</time></trkpt>
<trkpt lat="43.67683" lon="5.708157"><ele>423</ele><time>2015-05-29T15:53:40Z</time></trkpt>
<trkpt lat="43.676834" lon="5.708253"><ele>424</ele><time>2015-05-29T15:53:44Z</time></trkpt>
<trkpt lat="43.676855" lon="5.708352"><ele>424</ele><time>2015-05-29T15:53:47Z</time></trkpt>
<trkpt lat="43.67689" lon="5.708475"><ele>424</ele><time>2015-05-29T15:53:51Z</time></trkpt>
<trkpt lat="43.676922" lon="5.708584"><ele>424</ele><time>2015-05-29T15:53:54Z</time></trkpt>
<trkpt lat="43.67693" lon="5.708723"><ele>424</ele><time>2015-05-29T15:53:57Z</time></trkpt>
<trkpt lat="43.676927" lon="5.708835"><ele>424</ele><time>2015-05-29T15:53:59Z</time></trkpt>
<trkpt lat="43.676925" lon="5.708952"><ele>423.0600064</ele><time>2015-05-29T15:54:01Z</time></trkpt>
<trkpt lat="43.676917" lon="5.70906"><ele>423</ele><time>2015-05-29T15:54:03Z</time></trkpt>
<trkpt lat="43.676902" lon="5.70918"><ele>423</ele><time>2015-05-29T15:54:06Z</time></trkpt>
<trkpt lat="43.676905" lon="5.709299"><ele>423</ele><time>2015-05-29T15:54:10Z</time></trkpt>
<trkpt lat="43.676892" lon="5.709459"><ele>423</ele><time>2015-05-29T15:54:14Z</time></trkpt>
<trkpt lat="43.676874" lon="5.709584"><ele>423</ele><time>2015-05-29T15:54:17Z</time></trkpt>
<trkpt lat="43.676848" lon="5.709733"><ele>423</ele><time>2015-05-29T15:54:20Z</time></trkpt>
<trkpt lat="43.676807" lon="5.7099"><ele>423</ele><time>2015-05-29T15:54:23Z</time></trkpt>
<trkpt lat="43.676758" lon="5.710039"><ele>423</ele><time>2015-05-29T15:54:26Z</time></trkpt>
<trkpt lat="43.676675" lon="5.710177"><ele>423</ele><time>2015-05-29T15:54:30Z</time></trkpt>
<trkpt lat="43.676599" lon="5.710267"><ele>425</ele><time>2015-05-29T15:54:33Z</time></trkpt>
<trkpt lat="43.676534" lon="5.710344"><ele>425</ele><time>2015-05-29T15:54:36Z</time></trkpt>
<trkpt lat="43.676466" lon="5.710464"><ele>425</ele><time>2015-05-29T15:54:40Z</time></trkpt>
<trkpt lat="43.676401" lon="5.710578"><ele>427</ele><time>2015-05-29T15:54:43Z</time></trkpt>
<trkpt lat="43.676331" lon="5.710683"><ele>427</ele><time>2015-05-29T15:54:46Z</time></trkpt>
<trkpt lat="43.676263" lon="5.710804"><ele>427</ele><time>2015-05-29T15:54:49Z</time></trkpt>
<trkpt lat="43.676175" lon="5.710912"><ele>427</ele><time>2015-05-29T15:54:52Z</time></trkpt>
<trkpt lat="43.676092" lon="5.710966"><ele>427</ele><time>2015-05-29T15:54:54Z</time></trkpt>
<trkpt lat="43.676" lon="5.710999"><ele>427</ele><time>2015-05-29T15:54:56Z</time></trkpt>
<trkpt lat="43.675902" lon="5.710967"><ele>427</ele><time>2015-05-29T15:54:59Z</time></trkpt>
<trkpt lat="43.675842" lon="5.710858"><ele>424</ele><time>2015-05-29T15:55:02Z</time></trkpt>
<trkpt lat="43.675783" lon="5.710724"><ele>424</ele><time>2015-05-29T15:55:05Z</time></trkpt>
<trkpt lat="43.675716" lon="5.71062"><ele>421</ele><time>2015-05-29T15:55:07Z</time></trkpt>
<trkpt lat="43.675586" lon="5.710446"><ele>421</ele><time>2015-05-29T15:55:09Z</time></trkpt>
<trkpt lat="43.675474" lon="5.710343"><ele>418.1800192</ele><time>2015-05-29T15:55:11Z</time></trkpt>
<trkpt lat="43.675379" lon="5.710263"><ele>418</ele><time>2015-05-29T15:55:13Z</time></trkpt>
<trkpt lat="43.675264" lon="5.710171"><ele>418</ele><time>2015-05-29T15:55:16Z</time></trkpt>
<trkpt lat="43.675163" lon="5.710077"><ele>418</ele><time>2015-05-29T15:55:19Z</time></trkpt>
<trkpt lat="43.675077" lon="5.710007"><ele>419</ele><time>2015-05-29T15:55:22Z</time></trkpt>
<trkpt lat="43.674976" lon="5.709938"><ele>419</ele><time>2015-05-29T15:55:26Z</time></trkpt>
<trkpt lat="43.674888" lon="5.70986"><ele>419</ele><time>2015-05-29T15:55:30Z</time></trkpt>
<trkpt lat="43.674781" lon="5.709788"><ele>421</ele><time>2015-05-29T15:55:35Z</time></trkpt>
<trkpt lat="43.674687" lon="5.709752"><ele>424</ele><time>2015-05-29T15:55:39Z</time></trkpt>
<trkpt lat="43.674624" lon="5.709717"><ele>424</ele><time>2015-05-29T15:55:42Z</time></trkpt>
<trkpt lat="43.674558" lon="5.709685"><ele>424</ele><time>2015-05-29T15:55:45Z</time></trkpt>
<trkpt lat="43.674475" lon="5.709654"><ele>426</ele><time>2015-05-29T15:55:49Z</time></trkpt>
<trkpt lat="43.674401" lon="5.709629"><ele>428</ele><time>2015-05-29T15:55:53Z</time></trkpt>
<trkpt lat="43.674328" lon="5.709609"><ele>430</ele><time>2015-05-29T15:55:57Z</time></trkpt>
<trkpt lat="43.674254" lon="5.709613"><ele>431.3400064</ele><time>2015-05-29T15:56:00Z</time></trkpt>
<trkpt lat="43.67416" lon="5.709666"><ele>432</ele><time>2015-05-29T15:56:05Z</time></trkpt>
<trkpt lat="43.674095" lon="5.709735"><ele>432</ele><time>2015-05-29T15:56:08Z</time></trkpt>
<trkpt lat="43.674045" lon="5.709843"><ele>431</ele><time>2015-05-29T15:56:12Z</time></trkpt>
<trkpt lat="43.67405" lon="5.709956"><ele>431</ele><time>2015-05-29T15:56:17Z</time></trkpt>
<trkpt lat="43.674079" lon="5.710057"><ele>432.8799872</ele><time>2015-05-29T15:56:21Z</time></trkpt>
<trkpt lat="43.674107" lon="5.71017"><ele>433</ele><time>2015-05-29T15:56:25Z</time></trkpt>
<trkpt lat="43.674146" lon="5.710273"><ele>433</ele><time>2015-05-29T15:56:29Z</time></trkpt>
<trkpt lat="43.674174" lon="5.710379"><ele>434</ele><time>2015-05-29T15:56:33Z</time></trkpt>
<trkpt lat="43.674216" lon="5.710489"><ele>434</ele><time>2015-05-29T15:56:37Z</time></trkpt>
<trkpt lat="43.674256" lon="5.710615"><ele>435</ele><time>2015-05-29T15:56:42Z</time></trkpt>
<trkpt lat="43.674259" lon="5.71076"><ele>435</ele><time>2015-05-29T15:56:46Z</time></trkpt>
<trkpt lat="43.674247" lon="5.710927"><ele>435</ele><time>2015-05-29T15:56:50Z</time></trkpt>
<trkpt lat="43.674212" lon="5.711108"><ele>437</ele><time>2015-05-29T15:56:53Z</time></trkpt>
<trkpt lat="43.674151" lon="5.711273"><ele>437</ele><time>2015-05-29T15:56:56Z</time></trkpt>
<trkpt lat="43.674101" lon="5.711463"><ele>437</ele><time>2015-05-29T15:56:59Z</time></trkpt>
<trkpt lat="43.674071" lon="5.711618"><ele>433.2400256</ele><time>2015-05-29T15:57:01Z</time></trkpt>
<trkpt lat="43.67404" lon="5.71175"><ele>433</ele><time>2015-05-29T15:57:03Z</time></trkpt>
<trkpt lat="43.673987" lon="5.711917"><ele>433</ele><time>2015-05-29T15:57:06Z</time></trkpt>
<trkpt lat="43.67394" lon="5.712037"><ele>433</ele><time>2015-05-29T15:57:09Z</time></trkpt>
<trkpt lat="43.673928" lon="5.712207"><ele>435</ele><time>2015-05-29T15:57:12Z</time></trkpt>
<trkpt lat="43.673942" lon="5.712451"><ele>435</ele><time>2015-05-29T15:57:16Z</time></trkpt>
<trkpt lat="43.673949" lon="5.712588"><ele>435</ele><time>2015-05-29T15:57:18Z</time></trkpt>
<trkpt lat="43.673963" lon="5.71273"><ele>435</ele><time>2015-05-29T15:57:20Z</time></trkpt>
<trkpt lat="43.673982" lon="5.712882"><ele>432</ele><time>2015-05-29T15:57:22Z</time></trkpt>
<trkpt lat="43.674011" lon="5.713056"><ele>432</ele><time>2015-05-29T15:57:24Z</time></trkpt>
<trkpt lat="43.674038" lon="5.713211"><ele>429.181836988</ele><time>2015-05-29T15:57:26Z</time></trkpt>
<trkpt lat="43.674049" lon="5.713367"><ele>429</ele><time>2015-05-29T15:57:28Z</time></trkpt>
<trkpt lat="43.674041" lon="5.713508"><ele>429</ele><time>2015-05-29T15:57:30Z</time></trkpt>
<trkpt lat="43.673972" lon="5.713636"><ele>426</ele><time>2015-05-29T15:57:33Z</time></trkpt>
<trkpt lat="43.673927" lon="5.713792"><ele>425</ele><time>2015-05-29T15:57:36Z</time></trkpt>
<trkpt lat="43.673861" lon="5.713927"><ele>425</ele><time>2015-05-29T15:57:39Z</time></trkpt>
<trkpt lat="43.673771" lon="5.714023"><ele>423</ele><time>2015-05-29T15:57:42Z</time></trkpt>
<trkpt lat="43.67368" lon="5.714078"><ele>423</ele><time>2015-05-29T15:57:45Z</time></trkpt>
<trkpt lat="43.673601" lon="5.714139"><ele>423</ele><time>2015-05-29T15:57:49Z</time></trkpt>
<trkpt lat="43.673524" lon="5.714253"><ele>421.9399936</ele><time>2015-05-29T15:57:56Z</time></trkpt>
<trkpt lat="43.673459" lon="5.714339"><ele>422</ele><time>2015-05-29T15:58:00Z</time></trkpt>
<trkpt lat="43.673406" lon="5.714468"><ele>412</ele><time>2015-05-29T15:58:05Z</time></trkpt>
<trkpt lat="43.673326" lon="5.714562"><ele>408.0600064</ele><time>2015-05-29T15:58:09Z</time></trkpt>
<trkpt lat="43.673236" lon="5.714649"><ele>404.0600064</ele><time>2015-05-29T15:58:15Z</time></trkpt>
<trkpt lat="43.673137" lon="5.714644"><ele>403</ele><time>2015-05-29T15:58:19Z</time></trkpt>
<trkpt lat="43.67303" lon="5.714687"><ele>403</ele><time>2015-05-29T15:58:24Z</time></trkpt>
<trkpt lat="43.672983" lon="5.714827"><ele>402</ele><time>2015-05-29T15:58:28Z</time></trkpt>
<trkpt lat="43.672937" lon="5.71496"><ele>402.9399936</ele><time>2015-05-29T15:58:31Z</time></trkpt>
<trkpt lat="43.672888" lon="5.715083"><ele>403</ele><time>2015-05-29T15:58:34Z</time></trkpt>
<trkpt lat="43.672844" lon="5.71517"><ele>403</ele><time>2015-05-29T15:58:37Z</time></trkpt>
<trkpt lat="43.67279" lon="5.715241"><ele>404.8799872</ele><time>2015-05-29T15:58:41Z</time></trkpt>
<trkpt lat="43.672755" lon="5.715298"><ele>405</ele><time>2015-05-29T15:58:44Z</time></trkpt>
<trkpt lat="43.672724" lon="5.715354"><ele>405</ele><time>2015-05-29T15:58:47Z</time></trkpt>
<trkpt lat="43.672692" lon="5.71543"><ele>407.8199808</ele><time>2015-05-29T15:58:51Z</time></trkpt>
<trkpt lat="43.672671" lon="5.715486"><ele>408</ele><time>2015-05-29T15:58:54Z</time></trkpt>
<trkpt lat="43.672651" lon="5.715564"><ele>410</ele><time>2015-05-29T15:58:58Z</time></trkpt>
<trkpt lat="43.672638" lon="5.715644"><ele>410</ele><time>2015-05-29T15:59:02Z</time></trkpt>
<trkpt lat="43.672646" lon="5.715715"><ele>411.8799872</ele><time>2015-05-29T15:59:06Z</time></trkpt>
<trkpt lat="43.67263" lon="5.715812"><ele>412</ele><time>2015-05-29T15:59:13Z</time></trkpt>
<trkpt lat="43.672583" lon="5.715894"><ele>412</ele><time>2015-05-29T15:59:20Z</time></trkpt>
<trkpt lat="43.672559" lon="5.71599"><ele>414</ele><time>2015-05-29T15:59:26Z</time></trkpt>
<trkpt lat="43.67251" lon="5.716068"><ele>414</ele><time>2015-05-29T15:59:30Z</time></trkpt>
<trkpt lat="43.672455" lon="5.716106"><ele>416</ele><time>2015-05-29T15:59:33Z</time></trkpt>
<trkpt lat="43.672381" lon="5.716143"><ele>416</ele><time>2015-05-29T15:59:37Z</time></trkpt>
<trkpt lat="43.672289" lon="5.716172"><ele>416</ele><time>2015-05-29T15:59:41Z</time></trkpt>
<trkpt lat="43.672181" lon="5.716236"><ele>416</ele><time>2015-05-29T15:59:45Z</time></trkpt>
<trkpt lat="43.672068" lon="5.71627"><ele>416</ele><time>2015-05-29T15:59:49Z</time></trkpt>
<trkpt lat="43.671966" lon="5.716303"><ele>414</ele><time>2015-05-29T15:59:52Z</time></trkpt>
<trkpt lat="43.671871" lon="5.716312"><ele>414</ele><time>2015-05-29T15:59:55Z</time></trkpt>
<trkpt lat="43.671774" lon="5.716306"><ele>414</ele><time>2015-05-29T15:59:59Z</time></trkpt>
<trkpt lat="43.671695" lon="5.71633"><ele>413</ele><time>2015-05-29T16:00:03Z</time></trkpt>
<trkpt lat="43.671623" lon="5.716377"><ele>413</ele><time>2015-05-29T16:00:07Z</time></trkpt>
<trkpt lat="43.671551" lon="5.716491"><ele>415</ele><time>2015-05-29T16:00:13Z</time></trkpt>
<trkpt lat="43.671495" lon="5.716529"><ele>415</ele><time>2015-05-29T16:00:17Z</time></trkpt>
<trkpt lat="43.671423" lon="5.716507"><ele>417</ele><time>2015-05-29T16:00:23Z</time></trkpt>
<trkpt lat="43.671353" lon="5.71651"><ele>417</ele><time>2015-05-29T16:00:28Z</time></trkpt>
<trkpt lat="43.671276" lon="5.71654"><ele>419</ele><time>2015-05-29T16:00:33Z</time></trkpt>
<trkpt lat="43.671195" lon="5.716516"><ele>421</ele><time>2015-05-29T16:00:39Z</time></trkpt>
<trkpt lat="43.671128" lon="5.716474"><ele>422</ele><time>2015-05-29T16:00:43Z</time></trkpt>
<trkpt lat="43.671077" lon="5.716453"><ele>422.9399936</ele><time>2015-05-29T16:00:46Z</time></trkpt>
<trkpt lat="43.671014" lon="5.716452"><ele>423</ele><time>2015-05-29T16:00:50Z</time></trkpt>
<trkpt lat="43.670948" lon="5.716426"><ele>424</ele><time>2015-05-29T16:00:55Z</time></trkpt>
<trkpt lat="43.670889" lon="5.716389"><ele>424</ele><time>2015-05-29T16:00:59Z</time></trkpt>
<trkpt lat="43.670832" lon="5.716328"><ele>425</ele><time>2015-05-29T16:01:03Z</time></trkpt>
<trkpt lat="43.670774" lon="5.716267"><ele>426</ele><time>2015-05-29T16:01:12Z</time></trkpt>
<trkpt lat="43.670746" lon="5.716174"><ele>426</ele><time>2015-05-29T16:01:17Z</time></trkpt>
<trkpt lat="43.670716" lon="5.716096"><ele>428</ele><time>2015-05-29T16:01:22Z</time></trkpt>
<trkpt lat="43.67068" lon="5.716017"><ele>428</ele><time>2015-05-29T16:01:27Z</time></trkpt>
<trkpt lat="43.67065" lon="5.715932"><ele>431</ele><time>2015-05-29T16:01:32Z</time></trkpt>
<trkpt lat="43.670628" lon="5.715856"><ele>431</ele><time>2015-05-29T16:01:36Z</time></trkpt>
<trkpt lat="43.670616" lon="5.715777"><ele>431</ele><time>2015-05-29T16:01:40Z</time></trkpt>
<trkpt lat="43.670598" lon="5.715693"><ele>433</ele><time>2015-05-29T16:01:45Z</time></trkpt>
<trkpt lat="43.670554" lon="5.715622"><ele>435.36</ele><time>2015-05-29T16:01:50Z</time></trkpt>
<trkpt lat="43.670492" lon="5.715553"><ele>436</ele><time>2015-05-29T16:01:57Z</time></trkpt>
<trkpt lat="43.670434" lon="5.715478"><ele>437</ele><time>2015-05-29T16:02:02Z</time></trkpt>
<trkpt lat="43.670356" lon="5.715424"><ele>437</ele><time>2015-05-29T16:02:07Z</time></trkpt>
<trkpt lat="43.670292" lon="5.715361"><ele>438</ele><time>2015-05-29T16:02:12Z</time></trkpt>
<trkpt lat="43.67024" lon="5.715316"><ele>438</ele><time>2015-05-29T16:02:16Z</time></trkpt>
<trkpt lat="43.67018" lon="5.71526"><ele>442</ele><time>2015-05-29T16:02:22Z</time></trkpt>
<trkpt lat="43.670125" lon="5.715211"><ele>442.9399936</ele><time>2015-05-29T16:02:26Z</time></trkpt>
<trkpt lat="43.670076" lon="5.715166"><ele>443</ele><time>2015-05-29T16:02:30Z</time></trkpt>
<trkpt lat="43.670012" lon="5.71512"><ele>444</ele><time>2015-05-29T16:02:35Z</time></trkpt>
<trkpt lat="43.669944" lon="5.715069"><ele>445</ele><time>2015-05-29T16:02:39Z</time></trkpt>
<trkpt lat="43.669874" lon="5.715004"><ele>445</ele><time>2015-05-29T16:02:43Z</time></trkpt>
<trkpt lat="43.669824" lon="5.71493"><ele>445</ele><time>2015-05-29T16:02:47Z</time></trkpt>
<trkpt lat="43.66979" lon="5.71483"><ele>445</ele><time>2015-05-29T16:02:52Z</time></trkpt>
<trkpt lat="43.66975" lon="5.714747"><ele>445</ele><time>2015-05-29T16:02:57Z</time></trkpt>
<trkpt lat="43.669691" lon="5.714664"><ele>447.8199808</ele><time>2015-05-29T16:03:01Z</time></trkpt>
<trkpt lat="43.669622" lon="5.714601"><ele>448</ele><time>2015-05-29T16:03:05Z</time></trkpt>
<trkpt lat="43.669533" lon="5.714538"><ele>449</ele><time>2015-05-29T16:03:11Z</time></trkpt>
<trkpt lat="43.66945" lon="5.714476"><ele>449</ele><time>2015-05-29T16:03:16Z</time></trkpt>
<trkpt lat="43.669372" lon="5.714396"><ele>449.9399936</ele><time>2015-05-29T16:03:21Z</time></trkpt>
<trkpt lat="43.669294" lon="5.714348"><ele>450</ele><time>2015-05-29T16:03:25Z</time></trkpt>
<trkpt lat="43.669226" lon="5.714314"><ele>450</ele><time>2015-05-29T16:03:29Z</time></trkpt>
<trkpt lat="43.669138" lon="5.71427"><ele>453</ele><time>2015-05-29T16:03:35Z</time></trkpt>
<trkpt lat="43.669079" lon="5.714224"><ele>455</ele><time>2015-05-29T16:03:39Z</time></trkpt>
<trkpt lat="43.669008" lon="5.71417"><ele>456</ele><time>2015-05-29T16:03:44Z</time></trkpt>
<trkpt lat="43.668931" lon="5.714132"><ele>458</ele><time>2015-05-29T16:03:49Z</time></trkpt>
<trkpt lat="43.668862" lon="5.714086"><ele>459</ele><time>2015-05-29T16:03:55Z</time></trkpt>
<trkpt lat="43.668793" lon="5.714064"><ele>460</ele><time>2015-05-29T16:03:59Z</time></trkpt>
<trkpt lat="43.668729" lon="5.714011"><ele>460</ele><time>2015-05-29T16:04:03Z</time></trkpt>
<trkpt lat="43.668676" lon="5.713938"><ele>460</ele><time>2015-05-29T16:04:07Z</time></trkpt>
<trkpt lat="43.668626" lon="5.713877"><ele>460</ele><time>2015-05-29T16:04:10Z</time></trkpt>
<trkpt lat="43.668559" lon="5.713781"><ele>460</ele><time>2015-05-29T16:04:13Z</time></trkpt>
<trkpt lat="43.668502" lon="5.713664"><ele>460</ele><time>2015-05-29T16:04:16Z</time></trkpt>
<trkpt lat="43.668409" lon="5.713547"><ele>460</ele><time>2015-05-29T16:04:19Z</time></trkpt>
<trkpt lat="43.668316" lon="5.713424"><ele>456</ele><time>2015-05-29T16:04:22Z</time></trkpt>
<trkpt lat="43.668226" lon="5.713271"><ele>456</ele><time>2015-05-29T16:04:25Z</time></trkpt>
<trkpt lat="43.66816" lon="5.713147"><ele>452</ele><time>2015-05-29T16:04:27Z</time></trkpt>
<trkpt lat="43.6681" lon="5.712999"><ele>452</ele><time>2015-05-29T16:04:29Z</time></trkpt>
<trkpt lat="43.668041" lon="5.712848"><ele>448.2400256</ele><time>2015-05-29T16:04:31Z</time></trkpt>
<trkpt lat="43.66796" lon="5.712695"><ele>447</ele><time>2015-05-29T16:04:33Z</time></trkpt>
<trkpt lat="43.66788" lon="5.712552"><ele>447</ele><time>2015-05-29T16:04:35Z</time></trkpt>
<trkpt lat="43.667783" lon="5.712427"><ele>448</ele><time>2015-05-29T16:04:38Z</time></trkpt>
<trkpt lat="43.667693" lon="5.712333"><ele>449</ele><time>2015-05-29T16:04:42Z</time></trkpt>
<trkpt lat="43.667584" lon="5.712277"><ele>449</ele><time>2015-05-29T16:04:46Z</time></trkpt>
<trkpt lat="43.667495" lon="5.712216"><ele>449</ele><time>2015-05-29T16:04:49Z</time></trkpt>
<trkpt lat="43.667407" lon="5.712167"><ele>451</ele><time>2015-05-29T16:04:52Z</time></trkpt>
<trkpt lat="43.667325" lon="5.712101"><ele>451</ele><time>2015-05-29T16:04:55Z</time></trkpt>
<trkpt lat="43.667224" lon="5.712126"><ele>451</ele><time>2015-05-29T16:04:58Z</time></trkpt>
<trkpt lat="43.667143" lon="5.712189"><ele>451</ele><time>2015-05-29T16:05:00Z</time></trkpt>
<trkpt lat="43.667068" lon="5.712272"><ele>449</ele><time>2015-05-29T16:05:02Z</time></trkpt>
<trkpt lat="43.667031" lon="5.712395"><ele>449</ele><time>2015-05-29T16:05:04Z</time></trkpt>
<trkpt lat="43.666993" lon="5.712526"><ele>449</ele><time>2015-05-29T16:05:06Z</time></trkpt>
<trkpt lat="43.666916" lon="5.712621"><ele>449</ele><time>2015-05-29T16:05:08Z</time></trkpt>
<trkpt lat="43.666821" lon="5.71267"><ele>449</ele><time>2015-05-29T16:05:10Z</time></trkpt>
<trkpt lat="43.666716" lon="5.712706"><ele>449</ele><time>2015-05-29T16:05:12Z</time></trkpt>
<trkpt lat="43.666613" lon="5.712773"><ele>449</ele><time>2015-05-29T16:05:14Z</time></trkpt>
<trkpt lat="43.666507" lon="5.71286"><ele>449</ele><time>2015-05-29T16:05:16Z</time></trkpt>
<trkpt lat="43.66645" lon="5.71291"><ele>449</ele><time>2015-05-29T16:05:17Z</time></trkpt>
<trkpt lat="43.66639" lon="5.712957"><ele>449</ele><time>2015-05-29T16:05:18Z</time></trkpt>
<trkpt lat="43.666326" lon="5.713002"><ele>449</ele><time>2015-05-29T16:05:19Z</time></trkpt>
<trkpt lat="43.666262" lon="5.713042"><ele>449</ele><time>2015-05-29T16:05:20Z</time></trkpt>
<trkpt lat="43.666197" lon="5.713076"><ele>447.1200128</ele><time>2015-05-29T16:05:21Z</time></trkpt>
<trkpt lat="43.666127" lon="5.713106"><ele>447</ele><time>2015-05-29T16:05:22Z</time></trkpt>
<trkpt lat="43.666049" lon="5.713134"><ele>447</ele><time>2015-05-29T16:05:23Z</time></trkpt>
<trkpt lat="43.665969" lon="5.713165"><ele>447</ele><time>2015-05-29T16:05:24Z</time></trkpt>
<trkpt lat="43.66589" lon="5.713204"><ele>447</ele><time>2015-05-29T16:05:25Z</time></trkpt>
<trkpt lat="43.665814" lon="5.713245"><ele>447</ele><time>2015-05-29T16:05:26Z</time></trkpt>
<trkpt lat="43.66574" lon="5.713287"><ele>447</ele><time>2015-05-29T16:05:27Z</time></trkpt>
<trkpt lat="43.665667" lon="5.713325"><ele>447</ele><time>2015-05-29T16:05:28Z</time></trkpt>
<trkpt lat="43.665593" lon="5.713362"><ele>447</ele><time>2015-05-29T16:05:29Z</time></trkpt>
<trkpt lat="43.665525" lon="5.713409"><ele>447</ele><time>2015-05-29T16:05:30Z</time></trkpt>
<trkpt lat="43.665469" lon="5.71347"><ele>442.300032</ele><time>2015-05-29T16:05:31Z</time></trkpt>
<trkpt lat="43.66543" lon="5.713546"><ele>439.1800192</ele><time>2015-05-29T16:05:32Z</time></trkpt>
<trkpt lat="43.665399" lon="5.713716"><ele>439</ele><time>2015-05-29T16:05:34Z</time></trkpt>
<trkpt lat="43.665405" lon="5.713804"><ele>438.06931031861</ele><time>2015-05-29T16:05:35Z</time></trkpt>
<trkpt lat="43.665481" lon="5.713951"><ele>436.24800319489</ele><time>2015-05-29T16:05:37Z</time></trkpt>
<trkpt lat="43.665618" lon="5.714033"><ele>433.0600064</ele><time>2015-05-29T16:05:39Z</time></trkpt>
<trkpt lat="43.665699" lon="5.714054"><ele>431.1200128</ele><time>2015-05-29T16:05:40Z</time></trkpt>
<trkpt lat="43.665775" lon="5.714079"><ele>430.0600064</ele><time>2015-05-29T16:05:41Z</time></trkpt>
<trkpt lat="43.66585" lon="5.714099"><ele>429.0600064</ele><time>2015-05-29T16:05:42Z</time></trkpt>
<trkpt lat="43.665931" lon="5.714085"><ele>429</ele><time>2015-05-29T16:05:43Z</time></trkpt>
<trkpt lat="43.666009" lon="5.714066"><ele>429</ele><time>2015-05-29T16:05:44Z</time></trkpt>
<trkpt lat="43.666093" lon="5.714059"><ele>428.0600064</ele><time>2015-05-29T16:05:45Z</time></trkpt>
<trkpt lat="43.666178" lon="5.714064"><ele>428</ele><time>2015-05-29T16:05:46Z</time></trkpt>
<trkpt lat="43.66635" lon="5.714082"><ele>425.1200128</ele><time>2015-05-29T16:05:48Z</time></trkpt>
<trkpt lat="43.666502" lon="5.714158"><ele>424</ele><time>2015-05-29T16:05:50Z</time></trkpt>
<trkpt lat="43.666664" lon="5.714266"><ele>423</ele><time>2015-05-29T16:05:52Z</time></trkpt>
<trkpt lat="43.666815" lon="5.714384"><ele>422</ele><time>2015-05-29T16:05:54Z</time></trkpt>
<trkpt lat="43.666921" lon="5.71454"><ele>419.1200128</ele><time>2015-05-29T16:05:56Z</time></trkpt>
<trkpt lat="43.666957" lon="5.71464"><ele>418.0600064</ele><time>2015-05-29T16:05:57Z</time></trkpt>
<trkpt lat="43.66698" lon="5.714744"><ele>417.0600064</ele><time>2015-05-29T16:05:58Z</time></trkpt>
<trkpt lat="43.667" lon="5.714855"><ele>417</ele><time>2015-05-29T16:05:59Z</time></trkpt>
<trkpt lat="43.667021" lon="5.714966"><ele>416.0600064</ele><time>2015-05-29T16:06:00Z</time></trkpt>
<trkpt lat="43.667042" lon="5.715073"><ele>414.1200128</ele><time>2015-05-29T16:06:01Z</time></trkpt>
<trkpt lat="43.667066" lon="5.715169"><ele>414.9399936</ele><time>2015-05-29T16:06:02Z</time></trkpt>
<trkpt lat="43.667121" lon="5.715321"><ele>413.0600064</ele><time>2015-05-29T16:06:04Z</time></trkpt>
<trkpt lat="43.66721" lon="5.715411"><ele>411.0600064</ele><time>2015-05-29T16:06:06Z</time></trkpt>
<trkpt lat="43.667309" lon="5.715524"><ele>410.0600064</ele><time>2015-05-29T16:06:08Z</time></trkpt>
<trkpt lat="43.667402" lon="5.715668"><ele>406.1800192</ele><time>2015-05-29T16:06:10Z</time></trkpt>
<trkpt lat="43.66751" lon="5.715835"><ele>405.0600064</ele><time>2015-05-29T16:06:12Z</time></trkpt>
<trkpt lat="43.667644" lon="5.715986"><ele>403</ele><time>2015-05-29T16:06:14Z</time></trkpt>
<trkpt lat="43.667776" lon="5.716137"><ele>400.1200128</ele><time>2015-05-29T16:06:16Z</time></trkpt>
<trkpt lat="43.667877" lon="5.716284"><ele>399.0600064</ele><time>2015-05-29T16:06:18Z</time></trkpt>
<trkpt lat="43.667961" lon="5.71644"><ele>399.9500032</ele><time>2015-05-29T16:06:20Z</time></trkpt>
<trkpt lat="43.668025" lon="5.716576"><ele>400.9399936</ele><time>2015-05-29T16:06:22Z</time></trkpt>
<trkpt lat="43.668063" lon="5.716689"><ele>401</ele><time>2015-05-29T16:06:24Z</time></trkpt>
<trkpt lat="43.668091" lon="5.716812"><ele>401</ele><time>2015-05-29T16:06:27Z</time></trkpt>
<trkpt lat="43.668106" lon="5.716899"><ele>402</ele><time>2015-05-29T16:06:33Z</time></trkpt>
<trkpt lat="43.668103" lon="5.716969"><ele>402</ele><time>2015-05-29T16:06:37Z</time></trkpt>
<trkpt lat="43.668098" lon="5.717065"><ele>404</ele><time>2015-05-29T16:06:42Z</time></trkpt>
<trkpt lat="43.668091" lon="5.717154"><ele>404</ele><time>2015-05-29T16:06:47Z</time></trkpt>
<trkpt lat="43.668063" lon="5.717297"><ele>407</ele><time>2015-05-29T16:06:55Z</time></trkpt>
<trkpt lat="43.668054" lon="5.717348"><ele>408</ele><time>2015-05-29T16:06:58Z</time></trkpt>
<trkpt lat="43.668038" lon="5.717401"><ele>408.9399936</ele><time>2015-05-29T16:07:01Z</time></trkpt>
<trkpt lat="43.668013" lon="5.71747"><ele>409</ele><time>2015-05-29T16:07:04Z</time></trkpt>
<trkpt lat="43.66798" lon="5.717536"><ele>411</ele><time>2015-05-29T16:07:07Z</time></trkpt>
<trkpt lat="43.667948" lon="5.717587"><ele>411</ele><time>2015-05-29T16:07:09Z</time></trkpt>
<trkpt lat="43.667896" lon="5.717642"><ele>412</ele><time>2015-05-29T16:07:12Z</time></trkpt>
<trkpt lat="43.667847" lon="5.717694"><ele>412</ele><time>2015-05-29T16:07:15Z</time></trkpt>
<trkpt lat="43.667806" lon="5.717729"><ele>413</ele><time>2015-05-29T16:07:17Z</time></trkpt>
<trkpt lat="43.667768" lon="5.717766"><ele>413</ele><time>2015-05-29T16:07:19Z</time></trkpt>
<trkpt lat="43.667732" lon="5.717803"><ele>413</ele><time>2015-05-29T16:07:21Z</time></trkpt>
<trkpt lat="43.6677" lon="5.717853"><ele>413</ele><time>2015-05-29T16:07:23Z</time></trkpt>
<trkpt lat="43.667655" lon="5.717941"><ele>413</ele><time>2015-05-29T16:07:26Z</time></trkpt>
<trkpt lat="43.667614" lon="5.718027"><ele>413</ele><time>2015-05-29T16:07:29Z</time></trkpt>
<trkpt lat="43.667557" lon="5.71809"><ele>414</ele><time>2015-05-29T16:07:32Z</time></trkpt>
<trkpt lat="43.667508" lon="5.718125"><ele>414</ele><time>2015-05-29T16:07:35Z</time></trkpt>
<trkpt lat="43.667461" lon="5.718153"><ele>414</ele><time>2015-05-29T16:07:38Z</time></trkpt>
<trkpt lat="43.667418" lon="5.718186"><ele>415.8799872</ele><time>2015-05-29T16:07:41Z</time></trkpt>
<trkpt lat="43.667373" lon="5.718227"><ele>416</ele><time>2015-05-29T16:07:44Z</time></trkpt>
<trkpt lat="43.667338" lon="5.718289"><ele>416</ele><time>2015-05-29T16:07:47Z</time></trkpt>
<trkpt lat="43.667319" lon="5.718378"><ele>416</ele><time>2015-05-29T16:07:50Z</time></trkpt>
<trkpt lat="43.667314" lon="5.718468"><ele>418</ele><time>2015-05-29T16:07:53Z</time></trkpt>
<trkpt lat="43.667317" lon="5.718551"><ele>418</ele><time>2015-05-29T16:07:56Z</time></trkpt>
<trkpt lat="43.667319" lon="5.718613"><ele>418</ele><time>2015-05-29T16:07:59Z</time></trkpt>
<trkpt lat="43.66731" lon="5.71868"><ele>419</ele><time>2015-05-29T16:08:02Z</time></trkpt>
<trkpt lat="43.667312" lon="5.718748"><ele>419</ele><time>2015-05-29T16:08:05Z</time></trkpt>
<trkpt lat="43.667319" lon="5.718808"><ele>419</ele><time>2015-05-29T16:08:08Z</time></trkpt>
<trkpt lat="43.667321" lon="5.718867"><ele>422.7599744</ele><time>2015-05-29T16:08:11Z</time></trkpt>
<trkpt lat="43.667321" lon="5.718924"><ele>423</ele><time>2015-05-29T16:08:14Z</time></trkpt>
<trkpt lat="43.667357" lon="5.718962"><ele>425</ele><time>2015-05-29T16:08:18Z</time></trkpt>
<trkpt lat="43.667425" lon="5.718966"><ele>426</ele><time>2015-05-29T16:08:26Z</time></trkpt>
<trkpt lat="43.667514" lon="5.718993"><ele>426</ele><time>2015-05-29T16:08:29Z</time></trkpt>
<trkpt lat="43.667621" lon="5.71905"><ele>427</ele><time>2015-05-29T16:08:33Z</time></trkpt>
<trkpt lat="43.66771" lon="5.719122"><ele>427</ele><time>2015-05-29T16:08:37Z</time></trkpt>
<trkpt lat="43.667775" lon="5.71918"><ele>427</ele><time>2015-05-29T16:08:40Z</time></trkpt>
<trkpt lat="43.667861" lon="5.71924"><ele>427</ele><time>2015-05-29T16:08:43Z</time></trkpt>
<trkpt lat="43.667944" lon="5.7193"><ele>427</ele><time>2015-05-29T16:08:46Z</time></trkpt>
<trkpt lat="43.668031" lon="5.71934"><ele>427</ele><time>2015-05-29T16:08:50Z</time></trkpt>
<trkpt lat="43.668117" lon="5.719418"><ele>428</ele><time>2015-05-29T16:08:53Z</time></trkpt>
<trkpt lat="43.668188" lon="5.719528"><ele>428</ele><time>2015-05-29T16:08:56Z</time></trkpt>
<trkpt lat="43.668214" lon="5.719638"><ele>428</ele><time>2015-05-29T16:08:59Z</time></trkpt>
<trkpt lat="43.668243" lon="5.719739"><ele>427.0600064</ele><time>2015-05-29T16:09:01Z</time></trkpt>
<trkpt lat="43.668275" lon="5.719847"><ele>427</ele><time>2015-05-29T16:09:03Z</time></trkpt>
<trkpt lat="43.668305" lon="5.719946"><ele>427</ele><time>2015-05-29T16:09:05Z</time></trkpt>
<trkpt lat="43.668315" lon="5.720075"><ele>427</ele><time>2015-05-29T16:09:07Z</time></trkpt>
<trkpt lat="43.668325" lon="5.720224"><ele>427</ele><time>2015-05-29T16:09:09Z</time></trkpt>
<trkpt lat="43.668351" lon="5.72037"><ele>426.0600064</ele><time>2015-05-29T16:09:11Z</time></trkpt>
<trkpt lat="43.668379" lon="5.720494"><ele>426</ele><time>2015-05-29T16:09:13Z</time></trkpt>
<trkpt lat="43.668416" lon="5.720589"><ele>426</ele><time>2015-05-29T16:09:15Z</time></trkpt>
<trkpt lat="43.668396" lon="5.720724"><ele>426</ele><time>2015-05-29T16:09:18Z</time></trkpt>
<trkpt lat="43.668343" lon="5.720843"><ele>425</ele><time>2015-05-29T16:09:22Z</time></trkpt>
<trkpt lat="43.668328" lon="5.720954"><ele>425</ele><time>2015-05-29T16:09:25Z</time></trkpt>
<trkpt lat="43.668256" lon="5.72107"><ele>425</ele><time>2015-05-29T16:09:28Z</time></trkpt>
<trkpt lat="43.668154" lon="5.721128"><ele>425</ele><time>2015-05-29T16:09:31Z</time></trkpt>
<trkpt lat="43.668047" lon="5.721177"><ele>425</ele><time>2015-05-29T16:09:34Z</time></trkpt>
<trkpt lat="43.667962" lon="5.721279"><ele>425</ele><time>2015-05-29T16:09:37Z</time></trkpt>
<trkpt lat="43.66789" lon="5.721359"><ele>425</ele><time>2015-05-29T16:09:39Z</time></trkpt>
<trkpt lat="43.667806" lon="5.721438"><ele>422</ele><time>2015-05-29T16:09:41Z</time></trkpt>
<trkpt lat="43.667753" lon="5.721531"><ele>422</ele><time>2015-05-29T16:09:43Z</time></trkpt>
<trkpt lat="43.667741" lon="5.721709"><ele>419</ele><time>2015-05-29T16:09:46Z</time></trkpt>
<trkpt lat="43.667626" lon="5.721765"><ele>418.88</ele><time>2015-05-29T16:09:50Z</time></trkpt>
<trkpt lat="43.667535" lon="5.721847"><ele>413.9500032</ele><time>2015-05-29T16:09:53Z</time></trkpt>
<trkpt lat="43.667447" lon="5.721968"><ele>411.96</ele><time>2015-05-29T16:09:57Z</time></trkpt>
<trkpt lat="43.667347" lon="5.722101"><ele>410.96</ele><time>2015-05-29T16:10:00Z</time></trkpt>
<trkpt lat="43.667284" lon="5.72221"><ele>409.96</ele><time>2015-05-29T16:10:02Z</time></trkpt>
<trkpt lat="43.667199" lon="5.722304"><ele>408</ele><time>2015-05-29T16:10:04Z</time></trkpt>
<trkpt lat="43.667155" lon="5.722365"><ele>407</ele><time>2015-05-29T16:10:06Z</time></trkpt>
<trkpt lat="43.667105" lon="5.722465"><ele>407.04</ele><time>2015-05-29T16:10:09Z</time></trkpt>
<trkpt lat="43.667077" lon="5.722607"><ele>407</ele><time>2015-05-29T16:10:11Z</time></trkpt>
<trkpt lat="43.667017" lon="5.722755"><ele>407</ele><time>2015-05-29T16:10:13Z</time></trkpt>
<trkpt lat="43.666974" lon="5.722902"><ele>406.84</ele><time>2015-05-29T16:10:15Z</time></trkpt>
<trkpt lat="43.66697" lon="5.723042"><ele>403</ele><time>2015-05-29T16:10:17Z</time></trkpt>
<trkpt lat="43.666979" lon="5.723178"><ele>403</ele><time>2015-05-29T16:10:19Z</time></trkpt>
<trkpt lat="43.666978" lon="5.723388"><ele>394.96</ele><time>2015-05-29T16:10:22Z</time></trkpt>
<trkpt lat="43.667022" lon="5.723549"><ele>391.96</ele><time>2015-05-29T16:10:25Z</time></trkpt>
<trkpt lat="43.667136" lon="5.723632"><ele>388.96</ele><time>2015-05-29T16:10:28Z</time></trkpt>
<trkpt lat="43.667205" lon="5.723775"><ele>384.96</ele><time>2015-05-29T16:10:31Z</time></trkpt>
<trkpt lat="43.667293" lon="5.723867"><ele>382.96</ele><time>2015-05-29T16:10:34Z</time></trkpt>
<trkpt lat="43.66738" lon="5.723944"><ele>380.92</ele><time>2015-05-29T16:10:36Z</time></trkpt>
<trkpt lat="43.667501" lon="5.723998"><ele>377</ele><time>2015-05-29T16:10:38Z</time></trkpt>
<trkpt lat="43.667598" lon="5.724029"><ele>376</ele><time>2015-05-29T16:10:40Z</time></trkpt>
<trkpt lat="43.667681" lon="5.72411"><ele>373.92</ele><time>2015-05-29T16:10:42Z</time></trkpt>
<trkpt lat="43.667785" lon="5.724232"><ele>370.96</ele><time>2015-05-29T16:10:44Z</time></trkpt>
<trkpt lat="43.66789" lon="5.724343"><ele>369.92</ele><time>2015-05-29T16:10:46Z</time></trkpt>
<trkpt lat="43.667958" lon="5.724459"><ele>367</ele><time>2015-05-29T16:10:48Z</time></trkpt>
<trkpt lat="43.667972" lon="5.724595"><ele>365.96</ele><time>2015-05-29T16:10:50Z</time></trkpt>
<trkpt lat="43.667853" lon="5.72468"><ele>363.96</ele><time>2015-05-29T16:10:54Z</time></trkpt>
<trkpt lat="43.667746" lon="5.724767"><ele>362</ele><time>2015-05-29T16:10:56Z</time></trkpt>
<trkpt lat="43.667639" lon="5.724863"><ele>360.92079182825</ele><time>2015-05-29T16:10:58Z</time></trkpt>
<trkpt lat="43.667583" lon="5.724988"><ele>357.96</ele><time>2015-05-29T16:11:00Z</time></trkpt>
<trkpt lat="43.667509" lon="5.725141"><ele>356</ele><time>2015-05-29T16:11:03Z</time></trkpt>
<trkpt lat="43.66744" lon="5.725217"><ele>354.92</ele><time>2015-05-29T16:11:05Z</time></trkpt>
<trkpt lat="43.667395" lon="5.725376"><ele>352.96</ele><time>2015-05-29T16:11:08Z</time></trkpt>
<trkpt lat="43.667374" lon="5.725531"><ele>350.96969383533</ele><time>2015-05-29T16:11:10Z</time></trkpt>
<trkpt lat="43.667331" lon="5.725692"><ele>350</ele><time>2015-05-29T16:11:12Z</time></trkpt>
<trkpt lat="43.66728" lon="5.725823"><ele>350</ele><time>2015-05-29T16:11:14Z</time></trkpt>
<trkpt lat="43.667368" lon="5.725925"><ele>347.1200128</ele><time>2015-05-29T16:11:19Z</time></trkpt>
<trkpt lat="43.667492" lon="5.72602"><ele>346</ele><time>2015-05-29T16:11:22Z</time></trkpt>
<trkpt lat="43.667574" lon="5.726103"><ele>346</ele><time>2015-05-29T16:11:24Z</time></trkpt>
<trkpt lat="43.667686" lon="5.726198"><ele>346</ele><time>2015-05-29T16:11:27Z</time></trkpt>
<trkpt lat="43.667747" lon="5.726344"><ele>344.1200128</ele><time>2015-05-29T16:11:31Z</time></trkpt>
<trkpt lat="43.667762" lon="5.726526"><ele>344</ele><time>2015-05-29T16:11:33Z</time></trkpt>
<trkpt lat="43.667773" lon="5.726697"><ele>344</ele><time>2015-05-29T16:11:35Z</time></trkpt>
<trkpt lat="43.667769" lon="5.726835"><ele>344</ele><time>2015-05-29T16:11:37Z</time></trkpt>
<trkpt lat="43.667809" lon="5.72701"><ele>344</ele><time>2015-05-29T16:11:39Z</time></trkpt>
<trkpt lat="43.667839" lon="5.727159"><ele>340.2400256</ele><time>2015-05-29T16:11:41Z</time></trkpt>
<trkpt lat="43.667877" lon="5.727286"><ele>340</ele><time>2015-05-29T16:11:43Z</time></trkpt>
<trkpt lat="43.667896" lon="5.727451"><ele>338.1200128</ele><time>2015-05-29T16:11:46Z</time></trkpt>
<trkpt lat="43.667949" lon="5.727625"><ele>338</ele><time>2015-05-29T16:11:49Z</time></trkpt>
<trkpt lat="43.667998" lon="5.727787"><ele>335.1800192</ele><time>2015-05-29T16:11:51Z</time></trkpt>
<trkpt lat="43.668076" lon="5.727913"><ele>334</ele><time>2015-05-29T16:11:53Z</time></trkpt>
<trkpt lat="43.668163" lon="5.727985"><ele>333.0600064</ele><time>2015-05-29T16:11:55Z</time></trkpt>
<trkpt lat="43.668277" lon="5.728018"><ele>332</ele><time>2015-05-29T16:11:58Z</time></trkpt>
<trkpt lat="43.668394" lon="5.728001"><ele>330.0600064</ele><time>2015-05-29T16:12:01Z</time></trkpt>
<trkpt lat="43.668494" lon="5.728065"><ele>329.0600064</ele><time>2015-05-29T16:12:04Z</time></trkpt>
<trkpt lat="43.668578" lon="5.72816"><ele>327.0600064</ele><time>2015-05-29T16:12:07Z</time></trkpt>
<trkpt lat="43.668643" lon="5.728271"><ele>327</ele><time>2015-05-29T16:12:09Z</time></trkpt>
<trkpt lat="43.668696" lon="5.728419"><ele>325.0600064</ele><time>2015-05-29T16:12:11Z</time></trkpt>
<trkpt lat="43.668745" lon="5.728569"><ele>322.06931031861</ele><time>2015-05-29T16:12:13Z</time></trkpt>
<trkpt lat="43.668801" lon="5.728686"><ele>320.0600064</ele><time>2015-05-29T16:12:15Z</time></trkpt>
<trkpt lat="43.668854" lon="5.728826"><ele>316.1800192</ele><time>2015-05-29T16:12:17Z</time></trkpt>
<trkpt lat="43.668924" lon="5.728959"><ele>315</ele><time>2015-05-29T16:12:19Z</time></trkpt>
<trkpt lat="43.668994" lon="5.729074"><ele>313.0600064</ele><time>2015-05-29T16:12:21Z</time></trkpt>
<trkpt lat="43.66907" lon="5.729183"><ele>312</ele><time>2015-05-29T16:12:23Z</time></trkpt>
<trkpt lat="43.669189" lon="5.729272"><ele>311</ele><time>2015-05-29T16:12:26Z</time></trkpt>
<trkpt lat="43.669298" lon="5.729284"><ele>309.0600064</ele><time>2015-05-29T16:12:29Z</time></trkpt>
<trkpt lat="43.669379" lon="5.729402"><ele>309</ele><time>2015-05-29T16:12:32Z</time></trkpt>
<trkpt lat="43.66943" lon="5.729509"><ele>309</ele><time>2015-05-29T16:12:34Z</time></trkpt>
<trkpt lat="43.669513" lon="5.729574"><ele>308</ele><time>2015-05-29T16:12:37Z</time></trkpt>
<trkpt lat="43.669575" lon="5.729636"><ele>306</ele><time>2015-05-29T16:12:47Z</time></trkpt>
<trkpt lat="43.669662" lon="5.729706"><ele>306.9399936</ele><time>2015-05-29T16:12:51Z</time></trkpt>
<trkpt lat="43.669727" lon="5.72974"><ele>307</ele><time>2015-05-29T16:12:53Z</time></trkpt>
<trkpt lat="43.669823" lon="5.729756"><ele>307</ele><time>2015-05-29T16:12:55Z</time></trkpt>
<trkpt lat="43.669955" lon="5.729757"><ele>307</ele><time>2015-05-29T16:12:57Z</time></trkpt>
<trkpt lat="43.670088" lon="5.72976"><ele>307</ele><time>2015-05-29T16:12:59Z</time></trkpt>
<trkpt lat="43.670226" lon="5.729797"><ele>302.300032</ele><time>2015-05-29T16:13:01Z</time></trkpt>
<trkpt lat="43.670372" lon="5.729801"><ele>301.0600064</ele><time>2015-05-29T16:13:03Z</time></trkpt>
<trkpt lat="43.670518" lon="5.729761"><ele>300</ele><time>2015-05-29T16:13:04Z</time></trkpt>
<trkpt lat="43.670626" lon="5.729699"><ele>298.0600064</ele><time>2015-05-29T16:13:07Z</time></trkpt>
<trkpt lat="43.670688" lon="5.729542"><ele>298.9399936</ele><time>2015-05-29T16:13:10Z</time></trkpt>
<trkpt lat="43.670779" lon="5.729431"><ele>299</ele><time>2015-05-29T16:13:13Z</time></trkpt>
<trkpt lat="43.670898" lon="5.729467"><ele>299</ele><time>2015-05-29T16:13:15Z</time></trkpt>
<trkpt lat="43.670986" lon="5.729572"><ele>297</ele><time>2015-05-29T16:13:17Z</time></trkpt>
<trkpt lat="43.671064" lon="5.729689"><ele>297</ele><time>2015-05-29T16:13:19Z</time></trkpt>
<trkpt lat="43.671152" lon="5.729771"><ele>296.0600064</ele><time>2015-05-29T16:13:21Z</time></trkpt>
<trkpt lat="43.671253" lon="5.729847"><ele>296</ele><time>2015-05-29T16:13:23Z</time></trkpt>
<trkpt lat="43.671346" lon="5.729988"><ele>296</ele><time>2015-05-29T16:13:25Z</time></trkpt>
<trkpt lat="43.671431" lon="5.730146"><ele>294</ele><time>2015-05-29T16:13:27Z</time></trkpt>
<trkpt lat="43.671525" lon="5.730286"><ele>294</ele><time>2015-05-29T16:13:29Z</time></trkpt>
<trkpt lat="43.671602" lon="5.73044"><ele>291.1800192</ele><time>2015-05-29T16:13:31Z</time></trkpt>
<trkpt lat="43.67163" lon="5.730606"><ele>291</ele><time>2015-05-29T16:13:33Z</time></trkpt>
<trkpt lat="43.671709" lon="5.730708"><ele>291</ele><time>2015-05-29T16:13:36Z</time></trkpt>
<trkpt lat="43.671805" lon="5.730637"><ele>291</ele><time>2015-05-29T16:13:38Z</time></trkpt>
<trkpt lat="43.671917" lon="5.73065"><ele>291</ele><time>2015-05-29T16:13:40Z</time></trkpt>
<trkpt lat="43.671991" lon="5.730759"><ele>290</ele><time>2015-05-29T16:13:42Z</time></trkpt>
<trkpt lat="43.672062" lon="5.730928"><ele>290</ele><time>2015-05-29T16:13:45Z</time></trkpt>
<trkpt lat="43.672119" lon="5.731021"><ele>290</ele><time>2015-05-29T16:13:47Z</time></trkpt>
<trkpt lat="43.672174" lon="5.731117"><ele>290</ele><time>2015-05-29T16:13:49Z</time></trkpt>
<trkpt lat="43.67228" lon="5.73121"><ele>289</ele><time>2015-05-29T16:13:52Z</time></trkpt>
<trkpt lat="43.672417" lon="5.731226"><ele>289</ele><time>2015-05-29T16:13:55Z</time></trkpt>
<trkpt lat="43.672566" lon="5.731223"><ele>289</ele><time>2015-05-29T16:13:58Z</time></trkpt>
<trkpt lat="43.672657" lon="5.731216"><ele>289</ele><time>2015-05-29T16:14:00Z</time></trkpt>
<trkpt lat="43.672783" lon="5.731282"><ele>289</ele><time>2015-05-29T16:14:03Z</time></trkpt>
<trkpt lat="43.672892" lon="5.731241"><ele>289</ele><time>2015-05-29T16:14:06Z</time></trkpt>
<trkpt lat="43.672956" lon="5.731116"><ele>289</ele><time>2015-05-29T16:14:10Z</time></trkpt>
<trkpt lat="43.673027" lon="5.731065"><ele>291</ele><time>2015-05-29T16:14:14Z</time></trkpt>
<trkpt lat="43.673074" lon="5.731004"><ele>291</ele><time>2015-05-29T16:14:17Z</time></trkpt>
<trkpt lat="43.673127" lon="5.730897"><ele>291</ele><time>2015-05-29T16:14:21Z</time></trkpt>
<trkpt lat="43.673173" lon="5.730798"><ele>291</ele><time>2015-05-29T16:14:24Z</time></trkpt>
<trkpt lat="43.673244" lon="5.730714"><ele>291</ele><time>2015-05-29T16:14:27Z</time></trkpt>
<trkpt lat="43.673302" lon="5.730661"><ele>291</ele><time>2015-05-29T16:14:29Z</time></trkpt>
<trkpt lat="43.67336" lon="5.730541"><ele>293</ele><time>2015-05-29T16:14:32Z</time></trkpt>
<trkpt lat="43.67336" lon="5.730424"><ele>293</ele><time>2015-05-29T16:14:35Z</time></trkpt>
<trkpt lat="43.673338" lon="5.730343"><ele>293</ele><time>2015-05-29T16:14:38Z</time></trkpt>
<trkpt lat="43.673302" lon="5.730237"><ele>294.8799872</ele><time>2015-05-29T16:14:41Z</time></trkpt>
<trkpt lat="43.673292" lon="5.730085"><ele>295</ele><time>2015-05-29T16:14:44Z</time></trkpt>
<trkpt lat="43.673289" lon="5.729966"><ele>295</ele><time>2015-05-29T16:14:46Z</time></trkpt>
<trkpt lat="43.673306" lon="5.729812"><ele>295</ele><time>2015-05-29T16:14:49Z</time></trkpt>
<trkpt lat="43.673315" lon="5.729676"><ele>295</ele><time>2015-05-29T16:14:52Z</time></trkpt>
<trkpt lat="43.673348" lon="5.729557"><ele>295</ele><time>2015-05-29T16:14:55Z</time></trkpt>
<trkpt lat="43.673355" lon="5.729459"><ele>295</ele><time>2015-05-29T16:14:57Z</time></trkpt>
<trkpt lat="43.673351" lon="5.729338"><ele>295</ele><time>2015-05-29T16:15:00Z</time></trkpt>
<trkpt lat="43.673371" lon="5.729222"><ele>297</ele><time>2015-05-29T16:15:03Z</time></trkpt>
<trkpt lat="43.673376" lon="5.72913"><ele>297</ele><time>2015-05-29T16:15:05Z</time></trkpt>
<trkpt lat="43.673364" lon="5.729008"><ele>297</ele><time>2015-05-29T16:15:07Z</time></trkpt>
<trkpt lat="43.67335" lon="5.728892"><ele>297</ele><time>2015-05-29T16:15:09Z</time></trkpt>
<trkpt lat="43.673337" lon="5.72877"><ele>295</ele><time>2015-05-29T16:15:11Z</time></trkpt>
<trkpt lat="43.673416" lon="5.728633"><ele>295</ele><time>2015-05-29T16:15:15Z</time></trkpt>
<trkpt lat="43.673461" lon="5.728517"><ele>295</ele><time>2015-05-29T16:15:17Z</time></trkpt>
<trkpt lat="43.673457" lon="5.728375"><ele>295</ele><time>2015-05-29T16:15:19Z</time></trkpt>
<trkpt lat="43.673374" lon="5.728243"><ele>287</ele><time>2015-05-29T16:15:22Z</time></trkpt>
<trkpt lat="43.673277" lon="5.728162"><ele>287</ele><time>2015-05-29T16:15:25Z</time></trkpt>
<trkpt lat="43.673192" lon="5.728079"><ele>288</ele><time>2015-05-29T16:15:28Z</time></trkpt>
<trkpt lat="43.673164" lon="5.727961"><ele>289</ele><time>2015-05-29T16:15:31Z</time></trkpt>
<trkpt lat="43.673191" lon="5.727808"><ele>289</ele><time>2015-05-29T16:15:35Z</time></trkpt>
<trkpt lat="43.673266" lon="5.727751"><ele>289</ele><time>2015-05-29T16:15:38Z</time></trkpt>
<trkpt lat="43.673348" lon="5.727743"><ele>289.04</ele><time>2015-05-29T16:15:40Z</time></trkpt>
<trkpt lat="43.673458" lon="5.7277"><ele>290</ele><time>2015-05-29T16:15:43Z</time></trkpt>
<trkpt lat="43.673552" lon="5.727661"><ele>290</ele><time>2015-05-29T16:15:46Z</time></trkpt>
<trkpt lat="43.673636" lon="5.727613"><ele>290</ele><time>2015-05-29T16:15:49Z</time></trkpt>
<trkpt lat="43.673747" lon="5.727569"><ele>291</ele><time>2015-05-29T16:15:52Z</time></trkpt>
<trkpt lat="43.673829" lon="5.727547"><ele>291</ele><time>2015-05-29T16:15:54Z</time></trkpt>
<trkpt lat="43.673928" lon="5.727547"><ele>291</ele><time>2015-05-29T16:15:56Z</time></trkpt>
<trkpt lat="43.674024" lon="5.727561"><ele>291</ele><time>2015-05-29T16:15:58Z</time></trkpt>
<trkpt lat="43.674139" lon="5.727534"><ele>291</ele><time>2015-05-29T16:16:01Z</time></trkpt>
<trkpt lat="43.674229" lon="5.727513"><ele>291</ele><time>2015-05-29T16:16:04Z</time></trkpt>
<trkpt lat="43.674314" lon="5.727448"><ele>291</ele><time>2015-05-29T16:16:07Z</time></trkpt>
<trkpt lat="43.674363" lon="5.727382"><ele>291</ele><time>2015-05-29T16:16:09Z</time></trkpt>
<trkpt lat="43.674412" lon="5.727322"><ele>292</ele><time>2015-05-29T16:16:11Z</time></trkpt>
<trkpt lat="43.674486" lon="5.727278"><ele>292</ele><time>2015-05-29T16:16:13Z</time></trkpt>
<trkpt lat="43.674564" lon="5.727213"><ele>292</ele><time>2015-05-29T16:16:15Z</time></trkpt>
<trkpt lat="43.674651" lon="5.727158"><ele>292</ele><time>2015-05-29T16:16:17Z</time></trkpt>
<trkpt lat="43.674747" lon="5.727126"><ele>292</ele><time>2015-05-29T16:16:19Z</time></trkpt>
<trkpt lat="43.674828" lon="5.727037"><ele>291</ele><time>2015-05-29T16:16:21Z</time></trkpt>
<trkpt lat="43.674926" lon="5.726999"><ele>291</ele><time>2015-05-29T16:16:23Z</time></trkpt>
<trkpt lat="43.675022" lon="5.726966"><ele>291</ele><time>2015-05-29T16:16:25Z</time></trkpt>
<trkpt lat="43.675086" lon="5.726855"><ele>291</ele><time>2015-05-29T16:16:27Z</time></trkpt>
<trkpt lat="43.675146" lon="5.726751"><ele>291</ele><time>2015-05-29T16:16:29Z</time></trkpt>
<trkpt lat="43.675224" lon="5.726667"><ele>289</ele><time>2015-05-29T16:16:31Z</time></trkpt>
<trkpt lat="43.67534" lon="5.726541"><ele>289</ele><time>2015-05-29T16:16:34Z</time></trkpt>
<trkpt lat="43.675471" lon="5.726436"><ele>287</ele><time>2015-05-29T16:16:37Z</time></trkpt>
<trkpt lat="43.675585" lon="5.726353"><ele>287</ele><time>2015-05-29T16:16:39Z</time></trkpt>
<trkpt lat="43.675709" lon="5.726282"><ele>285</ele><time>2015-05-29T16:16:41Z</time></trkpt>
<trkpt lat="43.67583" lon="5.726198"><ele>285</ele><time>2015-05-29T16:16:43Z</time></trkpt>
<trkpt lat="43.675945" lon="5.726164"><ele>284.88</ele><time>2015-05-29T16:16:45Z</time></trkpt>
<trkpt lat="43.676077" lon="5.726163"><ele>282</ele><time>2015-05-29T16:16:47Z</time></trkpt>
<trkpt lat="43.676204" lon="5.726097"><ele>282</ele><time>2015-05-29T16:16:49Z</time></trkpt>
<trkpt lat="43.67631" lon="5.726003"><ele>276.96969383533</ele><time>2015-05-29T16:16:51Z</time></trkpt>
<trkpt lat="43.676345" lon="5.725865"><ele>275.9900032</ele><time>2015-05-29T16:16:53Z</time></trkpt>
<trkpt lat="43.676337" lon="5.72572"><ele>275</ele><time>2015-05-29T16:16:55Z</time></trkpt>
<trkpt lat="43.676244" lon="5.725594"><ele>274.96</ele><time>2015-05-29T16:16:57Z</time></trkpt>
<trkpt lat="43.676126" lon="5.725482"><ele>274</ele><time>2015-05-29T16:16:59Z</time></trkpt>
<trkpt lat="43.676035" lon="5.725355"><ele>275</ele><time>2015-05-29T16:17:01Z</time></trkpt>
<trkpt lat="43.675974" lon="5.725221"><ele>275</ele><time>2015-05-29T16:17:03Z</time></trkpt>
<trkpt lat="43.675927" lon="5.725078"><ele>275</ele><time>2015-05-29T16:17:05Z</time></trkpt>
<trkpt lat="43.675882" lon="5.724929"><ele>275</ele><time>2015-05-29T16:17:07Z</time></trkpt>
<trkpt lat="43.675854" lon="5.724761"><ele>275</ele><time>2015-05-29T16:17:09Z</time></trkpt>
<trkpt lat="43.675841" lon="5.724593"><ele>275</ele><time>2015-05-29T16:17:11Z</time></trkpt>
<trkpt lat="43.67583" lon="5.724414"><ele>275</ele><time>2015-05-29T16:17:13Z</time></trkpt>
<trkpt lat="43.675848" lon="5.724253"><ele>275</ele><time>2015-05-29T16:17:15Z</time></trkpt>
<trkpt lat="43.675888" lon="5.724109"><ele>275</ele><time>2015-05-29T16:17:17Z</time></trkpt>
<trkpt lat="43.67594" lon="5.723972"><ele>275</ele><time>2015-05-29T16:17:19Z</time></trkpt>
<trkpt lat="43.675996" lon="5.723826"><ele>275</ele><time>2015-05-29T16:17:21Z</time></trkpt>
<trkpt lat="43.676067" lon="5.723673"><ele>275</ele><time>2015-05-29T16:17:23Z</time></trkpt>
<trkpt lat="43.676145" lon="5.723514"><ele>275</ele><time>2015-05-29T16:17:25Z</time></trkpt>
<trkpt lat="43.676231" lon="5.723376"><ele>275</ele><time>2015-05-29T16:17:27Z</time></trkpt>
<trkpt lat="43.676313" lon="5.723224"><ele>275</ele><time>2015-05-29T16:17:29Z</time></trkpt>
<trkpt lat="43.676399" lon="5.723077"><ele>274</ele><time>2015-05-29T16:17:31Z</time></trkpt>
<trkpt lat="43.67648" lon="5.722941"><ele>274</ele><time>2015-05-29T16:17:33Z</time></trkpt>
<trkpt lat="43.676559" lon="5.722803"><ele>274</ele><time>2015-05-29T16:17:35Z</time></trkpt>
<trkpt lat="43.676606" lon="5.722646"><ele>274</ele><time>2015-05-29T16:17:37Z</time></trkpt>
<trkpt lat="43.676611" lon="5.72248"><ele>274</ele><time>2015-05-29T16:17:39Z</time></trkpt>
<trkpt lat="43.676585" lon="5.722326"><ele>274</ele><time>2015-05-29T16:17:41Z</time></trkpt>
<trkpt lat="43.676521" lon="5.722149"><ele>274</ele><time>2015-05-29T16:17:43Z</time></trkpt>
<trkpt lat="43.676468" lon="5.721967"><ele>274</ele><time>2015-05-29T16:17:45Z</time></trkpt>
<trkpt lat="43.676472" lon="5.721779"><ele>274</ele><time>2015-05-29T16:17:47Z</time></trkpt>
<trkpt lat="43.676551" lon="5.721595"><ele>274</ele><time>2015-05-29T16:17:49Z</time></trkpt>
<trkpt lat="43.676691" lon="5.721545"><ele>274</ele><time>2015-05-29T16:17:51Z</time></trkpt>
<trkpt lat="43.676847" lon="5.72153"><ele>274</ele><time>2015-05-29T16:17:53Z</time></trkpt>
<trkpt lat="43.676979" lon="5.721468"><ele>274</ele><time>2015-05-29T16:17:55Z</time></trkpt>
<trkpt lat="43.677101" lon="5.721382"><ele>274</ele><time>2015-05-29T16:17:57Z</time></trkpt>
<trkpt lat="43.677199" lon="5.721278"><ele>274</ele><time>2015-05-29T16:17:59Z</time></trkpt>
<trkpt lat="43.677307" lon="5.721173"><ele>272</ele><time>2015-05-29T16:18:01Z</time></trkpt>
<trkpt lat="43.677411" lon="5.721072"><ele>272</ele><time>2015-05-29T16:18:03Z</time></trkpt>
<trkpt lat="43.677515" lon="5.720978"><ele>272</ele><time>2015-05-29T16:18:05Z</time></trkpt>
<trkpt lat="43.677619" lon="5.72089"><ele>272</ele><time>2015-05-29T16:18:07Z</time></trkpt>
<trkpt lat="43.67773" lon="5.720806"><ele>272</ele><time>2015-05-29T16:18:09Z</time></trkpt>
<trkpt lat="43.67782" lon="5.720696"><ele>272</ele><time>2015-05-29T16:18:11Z</time></trkpt>
<trkpt lat="43.677875" lon="5.72056"><ele>272</ele><time>2015-05-29T16:18:13Z</time></trkpt>
<trkpt lat="43.67791" lon="5.720391"><ele>272</ele><time>2015-05-29T16:18:16Z</time></trkpt>
<trkpt lat="43.67796" lon="5.72023"><ele>272</ele><time>2015-05-29T16:18:19Z</time></trkpt>
<trkpt lat="43.678032" lon="5.720055"><ele>272</ele><time>2015-05-29T16:18:22Z</time></trkpt>
<trkpt lat="43.678102" lon="5.7199"><ele>272</ele><time>2015-05-29T16:18:25Z</time></trkpt>
<trkpt lat="43.678165" lon="5.719757"><ele>272</ele><time>2015-05-29T16:18:28Z</time></trkpt>
<trkpt lat="43.678219" lon="5.719596"><ele>273</ele><time>2015-05-29T16:18:31Z</time></trkpt>
<trkpt lat="43.678267" lon="5.719428"><ele>273</ele><time>2015-05-29T16:18:34Z</time></trkpt>
<trkpt lat="43.678292" lon="5.719272"><ele>273</ele><time>2015-05-29T16:18:37Z</time></trkpt>
<trkpt lat="43.678328" lon="5.719122"><ele>273.23257129249</ele><time>2015-05-29T16:18:40Z</time></trkpt>
<trkpt lat="43.678354" lon="5.718938"><ele>275</ele><time>2015-05-29T16:18:43Z</time></trkpt>
<trkpt lat="43.678397" lon="5.718741"><ele>275</ele><time>2015-05-29T16:18:46Z</time></trkpt>
<trkpt lat="43.678435" lon="5.718582"><ele>275</ele><time>2015-05-29T16:18:48Z</time></trkpt>
<trkpt lat="43.678491" lon="5.718417"><ele>274.96</ele><time>2015-05-29T16:18:50Z</time></trkpt>
<trkpt lat="43.678581" lon="5.718285"><ele>274</ele><time>2015-05-29T16:18:52Z</time></trkpt>
<trkpt lat="43.678686" lon="5.718156"><ele>274</ele><time>2015-05-29T16:18:54Z</time></trkpt>
<trkpt lat="43.678766" lon="5.718"><ele>274</ele><time>2015-05-29T16:18:56Z</time></trkpt>
<trkpt lat="43.678841" lon="5.71783"><ele>274</ele><time>2015-05-29T16:18:58Z</time></trkpt>
<trkpt lat="43.678902" lon="5.717655"><ele>273.96</ele><time>2015-05-29T16:19:00Z</time></trkpt>
<trkpt lat="43.678973" lon="5.71748"><ele>273</ele><time>2015-05-29T16:19:02Z</time></trkpt>
<trkpt lat="43.679053" lon="5.717318"><ele>273</ele><time>2015-05-29T16:19:04Z</time></trkpt>
<trkpt lat="43.679134" lon="5.717162"><ele>273</ele><time>2015-05-29T16:19:06Z</time></trkpt>
<trkpt lat="43.679219" lon="5.717006"><ele>273</ele><time>2015-05-29T16:19:08Z</time></trkpt>
<trkpt lat="43.679299" lon="5.716857"><ele>273</ele><time>2015-05-29T16:19:10Z</time></trkpt>
<trkpt lat="43.679379" lon="5.716711"><ele>273</ele><time>2015-05-29T16:19:12Z</time></trkpt>
<trkpt lat="43.679451" lon="5.716562"><ele>273</ele><time>2015-05-29T16:19:14Z</time></trkpt>
<trkpt lat="43.679517" lon="5.71641"><ele>273</ele><time>2015-05-29T16:19:16Z</time></trkpt>
<trkpt lat="43.679578" lon="5.71626"><ele>273</ele><time>2015-05-29T16:19:18Z</time></trkpt>
<trkpt lat="43.67964" lon="5.716113"><ele>272.92</ele><time>2015-05-29T16:19:20Z</time></trkpt>
<trkpt lat="43.679701" lon="5.715968"><ele>271</ele><time>2015-05-29T16:19:22Z</time></trkpt>
<trkpt lat="43.679765" lon="5.715826"><ele>271</ele><time>2015-05-29T16:19:24Z</time></trkpt>
<trkpt lat="43.679828" lon="5.715682"><ele>271</ele><time>2015-05-29T16:19:26Z</time></trkpt>
<trkpt lat="43.679902" lon="5.715546"><ele>271</ele><time>2015-05-29T16:19:28Z</time></trkpt>
<trkpt lat="43.679981" lon="5.71541"><ele>270.96039591413</ele><time>2015-05-29T16:19:30Z</time></trkpt>
<trkpt lat="43.680076" lon="5.715278"><ele>270</ele><time>2015-05-29T16:19:32Z</time></trkpt>
<trkpt lat="43.68017" lon="5.715149"><ele>270</ele><time>2015-05-29T16:19:34Z</time></trkpt>
<trkpt lat="43.680255" lon="5.715006"><ele>270</ele><time>2015-05-29T16:19:36Z</time></trkpt>
<trkpt lat="43.680331" lon="5.714857"><ele>270</ele><time>2015-05-29T16:19:38Z</time></trkpt>
<trkpt lat="43.6804" lon="5.714716"><ele>269.96</ele><time>2015-05-29T16:19:40Z</time></trkpt>
<trkpt lat="43.680485" lon="5.714587"><ele>269</ele><time>2015-05-29T16:19:42Z</time></trkpt>
<trkpt lat="43.68057" lon="5.71446"><ele>269</ele><time>2015-05-29T16:19:44Z</time></trkpt>
<trkpt lat="43.680643" lon="5.714325"><ele>269</ele><time>2015-05-29T16:19:46Z</time></trkpt>
<trkpt lat="43.680711" lon="5.714181"><ele>269</ele><time>2015-05-29T16:19:48Z</time></trkpt>
<trkpt lat="43.680776" lon="5.714036"><ele>268.96</ele><time>2015-05-29T16:19:50Z</time></trkpt>
<trkpt lat="43.680852" lon="5.713898"><ele>268</ele><time>2015-05-29T16:19:52Z</time></trkpt>
<trkpt lat="43.680946" lon="5.713774"><ele>268</ele><time>2015-05-29T16:19:54Z</time></trkpt>
<trkpt lat="43.681056" lon="5.713673"><ele>268</ele><time>2015-05-29T16:19:56Z</time></trkpt>
<trkpt lat="43.68117" lon="5.713585"><ele>268</ele><time>2015-05-29T16:19:58Z</time></trkpt>
<trkpt lat="43.68128" lon="5.713492"><ele>268</ele><time>2015-05-29T16:20:00Z</time></trkpt>
<trkpt lat="43.681381" lon="5.713386"><ele>268</ele><time>2015-05-29T16:20:02Z</time></trkpt>
<trkpt lat="43.681471" lon="5.713271"><ele>268</ele><time>2015-05-29T16:20:04Z</time></trkpt>
<trkpt lat="43.681551" lon="5.713144"><ele>268</ele><time>2015-05-29T16:20:06Z</time></trkpt>
<trkpt lat="43.681626" lon="5.713004"><ele>268</ele><time>2015-05-29T16:20:08Z</time></trkpt>
<trkpt lat="43.681701" lon="5.712865"><ele>268</ele><time>2015-05-29T16:20:10Z</time></trkpt>
<trkpt lat="43.681795" lon="5.712745"><ele>268</ele><time>2015-05-29T16:20:12Z</time></trkpt>
<trkpt lat="43.681911" lon="5.71266"><ele>268</ele><time>2015-05-29T16:20:14Z</time></trkpt>
<trkpt lat="43.682034" lon="5.712596"><ele>268</ele><time>2015-05-29T16:20:16Z</time></trkpt>
<trkpt lat="43.682155" lon="5.712513"><ele>268</ele><time>2015-05-29T16:20:18Z</time></trkpt>
<trkpt lat="43.68226" lon="5.712405"><ele>267.96</ele><time>2015-05-29T16:20:20Z</time></trkpt>
<trkpt lat="43.682362" lon="5.712289"><ele>267</ele><time>2015-05-29T16:20:22Z</time></trkpt>
<trkpt lat="43.682457" lon="5.712169"><ele>267</ele><time>2015-05-29T16:20:24Z</time></trkpt>
<trkpt lat="43.682547" lon="5.712046"><ele>267</ele><time>2015-05-29T16:20:26Z</time></trkpt>
<trkpt lat="43.682633" lon="5.711922"><ele>267</ele><time>2015-05-29T16:20:28Z</time></trkpt>
<trkpt lat="43.682723" lon="5.7118"><ele>267</ele><time>2015-05-29T16:20:30Z</time></trkpt>
<trkpt lat="43.682812" lon="5.711677"><ele>267</ele><time>2015-05-29T16:20:32Z</time></trkpt>
<trkpt lat="43.682901" lon="5.711555"><ele>267</ele><time>2015-05-29T16:20:34Z</time></trkpt>
<trkpt lat="43.68299" lon="5.711432"><ele>267</ele><time>2015-05-29T16:20:36Z</time></trkpt>
<trkpt lat="43.683077" lon="5.711312"><ele>267</ele><time>2015-05-29T16:20:38Z</time></trkpt>
<trkpt lat="43.683164" lon="5.711195"><ele>266.96</ele><time>2015-05-29T16:20:40Z</time></trkpt>
<trkpt lat="43.683249" lon="5.71108"><ele>266</ele><time>2015-05-29T16:20:42Z</time></trkpt>
<trkpt lat="43.68333" lon="5.710972"><ele>266</ele><time>2015-05-29T16:20:44Z</time></trkpt>
<trkpt lat="43.683413" lon="5.710866"><ele>266</ele><time>2015-05-29T16:20:46Z</time></trkpt>
<trkpt lat="43.683491" lon="5.710757"><ele>266</ele><time>2015-05-29T16:20:48Z</time></trkpt>
<trkpt lat="43.683568" lon="5.710646"><ele>266</ele><time>2015-05-29T16:20:50Z</time></trkpt>
<trkpt lat="43.683644" lon="5.710533"><ele>266</ele><time>2015-05-29T16:20:52Z</time></trkpt>
<trkpt lat="43.683722" lon="5.710427"><ele>266</ele><time>2015-05-29T16:20:54Z</time></trkpt>
<trkpt lat="43.683802" lon="5.710332"><ele>266</ele><time>2015-05-29T16:20:56Z</time></trkpt>
<trkpt lat="43.683887" lon="5.710246"><ele>266</ele><time>2015-05-29T16:20:58Z</time></trkpt>
<trkpt lat="43.683966" lon="5.710148"><ele>265.96</ele><time>2015-05-29T16:21:00Z</time></trkpt>
<trkpt lat="43.684049" lon="5.710054"><ele>265</ele><time>2015-05-29T16:21:02Z</time></trkpt>
<trkpt lat="43.684134" lon="5.709957"><ele>265</ele><time>2015-05-29T16:21:04Z</time></trkpt>
<trkpt lat="43.684218" lon="5.70986"><ele>265</ele><time>2015-05-29T16:21:06Z</time></trkpt>
<trkpt lat="43.684302" lon="5.709763"><ele>265</ele><time>2015-05-29T16:21:08Z</time></trkpt>
<trkpt lat="43.684385" lon="5.709667"><ele>265</ele><time>2015-05-29T16:21:10Z</time></trkpt>
<trkpt lat="43.684467" lon="5.709566"><ele>265</ele><time>2015-05-29T16:21:12Z</time></trkpt>
<trkpt lat="43.684552" lon="5.709466"><ele>265</ele><time>2015-05-29T16:21:14Z</time></trkpt>
<trkpt lat="43.68464" lon="5.709371"><ele>265</ele><time>2015-05-29T16:21:16Z</time></trkpt>
<trkpt lat="43.684724" lon="5.709281"><ele>265</ele><time>2015-05-29T16:21:18Z</time></trkpt>
<trkpt lat="43.684799" lon="5.709194"><ele>265.04</ele><time>2015-05-29T16:21:20Z</time></trkpt>
<trkpt lat="43.684873" lon="5.709113"><ele>266</ele><time>2015-05-29T16:21:22Z</time></trkpt>
<trkpt lat="43.684945" lon="5.709031"><ele>266</ele><time>2015-05-29T16:21:24Z</time></trkpt>
<trkpt lat="43.684973" lon="5.709142"><ele>265</ele><time>2015-05-29T16:21:31Z</time></trkpt>
<trkpt lat="43.684933" lon="5.709208"><ele>265</ele><time>2015-05-29T16:21:35Z</time></trkpt>
</trkseg></trk></gpx>